Observation data for Segovia 7SSW on 08/12/2019      Previous  Date  Next       Current Mesonet Observations  Soil Data  Daily Summary Page  Observations in Plain Language
KSE2 120500Z 14005KT 27/18 A3002 RMK A01 T02740175  RH  055%=      5-min Rain = 0
KSE2 120501Z 14006KT 28/18 A3002 RMK A01 T02750175  RH  055%=      5-min Rain = 0
KSE2 120502Z 14006KT 27/18 A3002 RMK A01 T02740175  RH  055%=      5-min Rain = 0
KSE2 120503Z 14005KT 27/18 A3002 RMK A01 T02740175  RH  055%=      5-min Rain = 0
KSE2 120504Z 14006KT 27/18 A3002 RMK A01 T02740175  RH  055%=      5-min Rain = 0
KSE2 120505Z 14006KT 27/18 A3002 RMK A01 T02740175  RH  055%=      5-min Rain = 0
KSE2 120506Z 14005KT 27/18 A3002 RMK A01 T02740176  RH  055%=      5-min Rain = 0
KSE2 120507Z 14006KT 27/18 A3002 RMK A01 T02740175  RH  055%=      5-min Rain = 0
KSE2 120508Z 14005KT 27/18 A3002 RMK A01 T02740175  RH  055%=      5-min Rain = 0
KSE2 120509Z 14006KT 27/18 A3002 RMK A01 T02740175  RH  055%=      5-min Rain = 0
KSE2 120510Z 14006KT 27/18 A3002 RMK A01 T02740176  RH  055%=      5-min Rain = 0
KSE2 120511Z 14006KT 27/18 A3002 RMK A01 T02740176  RH  055%=      5-min Rain = 0
KSE2 120512Z 14006KT 27/18 A3002 RMK A01 T02740176  RH  055%=      5-min Rain = 0
KSE2 120513Z 14006KT 27/18 A3002 RMK A01 T02740176  RH  055%=      5-min Rain = 0
KSE2 120514Z 14006KT 27/18 A3002 RMK A01 T02730176  RH  055%=      5-min Rain = 0
KSE2 120515Z 14007KT 27/18 A3002 RMK A01 T02740176  RH  055%=      5-min Rain = 0
KSE2 120516Z 15006KT 27/18 A3002 RMK A01 T02740176  RH  055%=      5-min Rain = 0
KSE2 120517Z 14006KT 27/18 A3002 RMK A01 T02740176  RH  055%=      5-min Rain = 0
KSE2 120518Z 15006KT 27/18 A3002 RMK A01 T02740176  RH  055%=      5-min Rain = 0
KSE2 120519Z 14006KT 27/18 A3002 RMK A01 T02740176  RH  055%=      5-min Rain = 0
KSE2 120520Z 15007KT 27/18 A3002 RMK A01 T02740176  RH  055%=      5-min Rain = 0
KSE2 120521Z 14007KT 27/18 A3002 RMK A01 T02740177  RH  055%=      5-min Rain = 0
KSE2 120522Z 16006KT 27/18 A3002 RMK A01 T02740177  RH  055%=      5-min Rain = 0
KSE2 120523Z 15007KT 27/18 A3002 RMK A01 T02740177  RH  055%=      5-min Rain = 0
KSE2 120524Z 15007KT 28/18 A3002 RMK A01 T02750177  RH  055%=      5-min Rain = 0
KSE2 120525Z 15008KT 28/18 A3002 RMK A01 T02750178  RH  055%=      5-min Rain = 0
KSE2 120526Z 15007KT 28/18 A3002 RMK A01 T02750178  RH  055%=      5-min Rain = 0
KSE2 120527Z 15006KT 28/18 A3002 RMK A01 T02750177  RH  055%=      5-min Rain = 0
KSE2 120528Z 15008KT 28/18 A3002 RMK A01 T02750178  RH  055%=      5-min Rain = 0
KSE2 120529Z 15007KT 28/18 A3002 RMK A01 T02750178  RH  055%=      5-min Rain = 0
KSE2 120530Z 15008KT 28/18 A3002 RMK A01 T02750178  RH  055%=      5-min Rain = 0
KSE2 120531Z 15008KT 28/18 A3002 RMK A01 T02750178  RH  056%=      5-min Rain = 0
KSE2 120532Z 14009KT 28/18 A3002 RMK A01 T02750179  RH  056%=      5-min Rain = 0
KSE2 120533Z 15009KT 28/18 A3002 RMK A01 T02750180  RH  056%=      5-min Rain = 0
KSE2 120534Z 14009KT 28/18 A3002 RMK A01 T02760182  RH  056%=      5-min Rain = 0
KSE2 120535Z 14008KT 28/18 A3002 RMK A01 T02760182  RH  056%=      5-min Rain = 0
KSE2 120536Z 14008KT 28/18 A3002 RMK A01 T02760182  RH  057%=      5-min Rain = 0
KSE2 120537Z 15008KT 28/18 A3002 RMK A01 T02760183  RH  057%=      5-min Rain = 0
KSE2 120538Z 14008KT 28/18 A3002 RMK A01 T02760183  RH  057%=      5-min Rain = 0
KSE2 120539Z 15008KT 28/18 A3002 RMK A01 T02750184  RH  057%=      5-min Rain = 0
KSE2 120540Z 14009KT 28/19 A3002 RMK A01 T02750185  RH  058%=      5-min Rain = 0
KSE2 120541Z 14007KT 28/19 A3002 RMK A01 T02760185  RH  058%=      5-min Rain = 0
KSE2 120542Z 15008KT 28/19 A3002 RMK A01 T02760185  RH  058%=      5-min Rain = 0
KSE2 120543Z 15008KT 28/19 A3002 RMK A01 T02750186  RH  058%=      5-min Rain = 0
KSE2 120544Z 15009KT 28/19 A3002 RMK A01 T02760188  RH  059%=      5-min Rain = 0
KSE2 120545Z 15007KT 28/19 A3002 RMK A01 T02760187  RH  059%=      5-min Rain = 0
KSE2 120546Z 14008G13KT 28/19 A3002 RMK A01 T02750190  RH  060%=      5-min Rain = 0
KSE2 120547Z 14008G13KT 28/19 A3002 RMK A01 T02750190  RH  060%=      5-min Rain = 0
KSE2 120548Z 14007KT 28/19 A3002 RMK A01 T02750190  RH  060%=      5-min Rain = 0
KSE2 120549Z 15008KT 28/19 A3002 RMK A01 T02750190  RH  060%=      5-min Rain = 0
KSE2 120550Z 14010KT 28/19 A3002 RMK A01 T02750192  RH  061%=      5-min Rain = 0
KSE2 120551Z 14008KT 28/19 A3002 RMK A01 T02750193  RH  061%=      5-min Rain = 0
KSE2 120552Z 14011KT 28/19 A3002 RMK A01 T02750193  RH  061%=      5-min Rain = 0
KSE2 120553Z 14010KT 28/20 A3002 RMK A01 T02750195  RH  061%=      5-min Rain = 0
KSE2 120554Z 14009G14KT 28/19 A3002 RMK A01 T02750194  RH  061%=      5-min Rain = 0
KSE2 120555Z 14009KT 28/20 A3002 RMK A01 T02750195  RH  062%=      5-min Rain = 0
KSE2 120556Z 14011KT 28/20 A3002 RMK A01 T02750195  RH  062%=      5-min Rain = 0
KSE2 120557Z 15009KT 28/20 A3001 RMK A01 T02750195  RH  062%=      5-min Rain = 0
KSE2 120558Z 14011KT 28/20 A3001 RMK A01 T02750195  RH  062%=      5-min Rain = 0
KSE2 120559Z 14009KT 28/20 A3001 RMK A01 T02750197  RH  063%=      5-min Rain = 0
KSE2 120600Z 14011KT 28/20 A3001 RMK A01 T02750197  RH  062%=      5-min Rain = 0
KSE2 120601Z 14008KT 28/20 A3001 RMK A01 T02750197  RH  062%=      5-min Rain = 0
KSE2 120602Z 14010KT 27/20 A3001 RMK A01 T02740196  RH  063%=      5-min Rain = 0
KSE2 120603Z 14010KT 27/20 A3001 RMK A01 T02740198  RH  063%=      5-min Rain = 0
KSE2 120604Z 14011KT 27/20 A3001 RMK A01 T02740199  RH  063%=      5-min Rain = 0
KSE2 120605Z 14010KT 27/20 A3001 RMK A01 T02740199  RH  064%=      5-min Rain = 0
KSE2 120606Z 14011KT 27/20 A3001 RMK A01 T02740200  RH  064%=      5-min Rain = 0
KSE2 120607Z 14010KT 27/20 A3001 RMK A01 T02740201  RH  064%=      5-min Rain = 0
KSE2 120608Z 14008KT 27/20 A3001 RMK A01 T02730201  RH  064%=      5-min Rain = 0
KSE2 120609Z 14009G14KT 27/20 A3001 RMK A01 T02730201  RH  065%=      5-min Rain = 0
KSE2 120610Z 14010KT 27/20 A3001 RMK A01 T02730203  RH  066%=      5-min Rain = 0
KSE2 120611Z 14009KT 27/20 A3001 RMK A01 T02730204  RH  066%=      5-min Rain = 0
KSE2 120612Z 14009KT 27/20 A3001 RMK A01 T02730204  RH  066%=      5-min Rain = 0
KSE2 120613Z 13010KT 27/21 A3001 RMK A01 T02730205  RH  066%=      5-min Rain = 0
KSE2 120614Z 14011KT 27/21 A3001 RMK A01 T02730206  RH  067%=      5-min Rain = 0
KSE2 120615Z 14008KT 27/21 A3001 RMK A01 T02730207  RH  067%=      5-min Rain = 0
KSE2 120616Z 14009KT 27/21 A3001 RMK A01 T02730207  RH  067%=      5-min Rain = 0
KSE2 120617Z 14007KT 27/21 A3001 RMK A01 T02720208  RH  068%=      5-min Rain = 0
KSE2 120618Z 15010KT 27/21 A3001 RMK A01 T02720208  RH  068%=      5-min Rain = 0
KSE2 120619Z 15009KT 27/21 A3001 RMK A01 T02720209  RH  068%=      5-min Rain = 0
KSE2 120620Z 14010KT 27/21 A3001 RMK A01 T02720210  RH  069%=      5-min Rain = 0
KSE2 120621Z 15010KT 27/21 A3001 RMK A01 T02720210  RH  069%=      5-min Rain = 0
KSE2 120622Z 14008KT 27/21 A3001 RMK A01 T02720211  RH  069%=      5-min Rain = 0
KSE2 120623Z 15011KT 27/21 A3001 RMK A01 T02720212  RH  070%=      5-min Rain = 0
KSE2 120624Z 14009KT 27/21 A3001 RMK A01 T02720213  RH  070%=      5-min Rain = 0
KSE2 120625Z 15008KT 27/21 A3001 RMK A01 T02720212  RH  070%=      5-min Rain = 0
KSE2 120626Z 15008KT 27/21 A3001 RMK A01 T02720212  RH  070%=      5-min Rain = 0
KSE2 120627Z 15010KT 27/21 A3001 RMK A01 T02710213  RH  070%=      5-min Rain = 0
KSE2 120628Z 15008KT 27/21 A3001 RMK A01 T02710213  RH  071%=      5-min Rain = 0
KSE2 120629Z 15010KT 27/21 A3001 RMK A01 T02710214  RH  071%=      5-min Rain = 0
KSE2 120630Z 15009KT 27/22 A3001 RMK A01 T02710215  RH  071%=      5-min Rain = 0
KSE2 120631Z 15010KT 27/22 A3001 RMK A01 T02710215  RH  072%=      5-min Rain = 0
KSE2 120632Z 15008KT 27/22 A3001 RMK A01 T02710216  RH  072%=      5-min Rain = 0
KSE2 120633Z 15007KT 27/22 A3001 RMK A01 T02710216  RH  072%=      5-min Rain = 0
KSE2 120634Z 15008KT 27/22 A3001 RMK A01 T02710216  RH  072%=      5-min Rain = 0
KSE2 120635Z 15009KT 27/22 A3001 RMK A01 T02710217  RH  072%=      5-min Rain = 0
KSE2 120636Z 15009KT 27/22 A3001 RMK A01 T02710217  RH  072%=      5-min Rain = 0
KSE2 120637Z 15011KT 27/22 A3001 RMK A01 T02710218  RH  073%=      5-min Rain = 0
KSE2 120638Z 15010KT 27/22 A3001 RMK A01 T02710218  RH  073%=      5-min Rain = 0
KSE2 120639Z 15009KT 27/22 A3001 RMK A01 T02710219  RH  073%=      5-min Rain = 0
KSE2 120640Z 15008KT 27/22 A3001 RMK A01 T02710219  RH  073%=      5-min Rain = 0
KSE2 120641Z 15009KT 27/22 A3001 RMK A01 T02710219  RH  073%=      5-min Rain = 0
KSE2 120642Z 15010KT 27/22 A3001 RMK A01 T02710219  RH  074%=      5-min Rain = 0
KSE2 120643Z 15008KT 27/22 A3001 RMK A01 T02710220  RH  074%=      5-min Rain = 0
KSE2 120644Z 16007KT 27/22 A3001 RMK A01 T02700220  RH  074%=      5-min Rain = 0
KSE2 120645Z 15007KT 27/22 A3001 RMK A01 T02700220  RH  074%=      5-min Rain = 0
KSE2 120646Z 15010KT 27/22 A3001 RMK A01 T02700220  RH  074%=      5-min Rain = 0
KSE2 120647Z 15010KT 27/22 A3001 RMK A01 T02700220  RH  074%=      5-min Rain = 0
KSE2 120648Z 16011KT 27/22 A3001 RMK A01 T02700221  RH  074%=      5-min Rain = 0
KSE2 120649Z 14007KT 27/22 A3001 RMK A01 T02700221  RH  074%=      5-min Rain = 0
KSE2 120650Z 16007KT 27/22 A3001 RMK A01 T02700220  RH  074%=      5-min Rain = 0
KSE2 120651Z 15007KT 27/22 A3001 RMK A01 T02700221  RH  075%=      5-min Rain = 0
KSE2 120652Z 16007KT 27/22 A3001 RMK A01 T02690220  RH  074%=      5-min Rain = 0
KSE2 120653Z 15009KT 27/22 A3001 RMK A01 T02690221  RH  075%=      5-min Rain = 0
KSE2 120654Z 15007KT 27/22 A3001 RMK A01 T02690221  RH  075%=      5-min Rain = 0
KSE2 120655Z 15009KT 27/22 A3001 RMK A01 T02690221  RH  075%=      5-min Rain = 0
KSE2 120656Z 15010KT 27/22 A3001 RMK A01 T02690221  RH  075%=      5-min Rain = 0
KSE2 120657Z 15008KT 27/22 A3001 RMK A01 T02690221  RH  075%=      5-min Rain = 0
KSE2 120658Z 15007KT 27/22 A3001 RMK A01 T02690221  RH  075%=      5-min Rain = 0
KSE2 120659Z 16008KT 27/22 A3001 RMK A01 T02690222  RH  075%=      5-min Rain = 0
KSE2 120700Z 16007KT 27/22 A3001 RMK A01 T02680221  RH  075%=      5-min Rain = 0
KSE2 120701Z 16007KT 27/22 A3001 RMK A01 T02680221  RH  075%=      5-min Rain = 0
KSE2 120702Z 16007KT 27/22 A3001 RMK A01 T02680221  RH  076%=      5-min Rain = 0
KSE2 120703Z 15009KT 27/22 A3001 RMK A01 T02680221  RH  076%=      5-min Rain = 0
KSE2 120704Z 15008KT 27/22 A3001 RMK A01 T02680222  RH  076%=      5-min Rain = 0
KSE2 120705Z 15006KT 27/22 A3001 RMK A01 T02670222  RH  076%=      5-min Rain = 0
KSE2 120706Z 15009KT 27/22 A3001 RMK A01 T02670222  RH  076%=      5-min Rain = 0
KSE2 120707Z 16009KT 27/22 A3001 RMK A01 T02670222  RH  076%=      5-min Rain = 0
KSE2 120708Z 16007KT 27/22 A3001 RMK A01 T02670222  RH  076%=      5-min Rain = 0
KSE2 120709Z 15006KT 27/22 A3001 RMK A01 T02670222  RH  076%=      5-min Rain = 0
KSE2 120710Z 15006KT 27/22 A3001 RMK A01 T02660221  RH  076%=      5-min Rain = 0
KSE2 120711Z 15006KT 27/22 A3001 RMK A01 T02660222  RH  077%=      5-min Rain = 0
KSE2 120712Z 15007KT 27/22 A3001 RMK A01 T02660222  RH  077%=      5-min Rain = 0
KSE2 120713Z 15006KT 27/22 A3001 RMK A01 T02660222  RH  077%=      5-min Rain = 0
KSE2 120714Z 15007KT 27/22 A3001 RMK A01 T02650222  RH  077%=      5-min Rain = 0
KSE2 120715Z 14008KT 27/22 A3001 RMK A01 T02650222  RH  077%=      5-min Rain = 0
KSE2 120716Z 15006KT 27/22 A3001 RMK A01 T02650222  RH  077%=      5-min Rain = 0
KSE2 120717Z 15008KT 27/22 A3001 RMK A01 T02650222  RH  077%=      5-min Rain = 0
KSE2 120718Z 16008KT 27/22 A3001 RMK A01 T02650222  RH  077%=      5-min Rain = 0
KSE2 120719Z 15007KT 27/22 A3001 RMK A01 T02650222  RH  077%=      5-min Rain = 0
KSE2 120720Z 15006KT 27/22 A3001 RMK A01 T02650222  RH  077%=      5-min Rain = 0
KSE2 120721Z 16008KT 27/22 A3001 RMK A01 T02650222  RH  077%=      5-min Rain = 0
KSE2 120722Z 16009KT 27/22 A3001 RMK A01 T02650223  RH  078%=      5-min Rain = 0
KSE2 120723Z 15008KT 27/22 A3001 RMK A01 T02650223  RH  078%=      5-min Rain = 0
KSE2 120724Z 15009KT 27/22 A3001 RMK A01 T02650223  RH  078%=      5-min Rain = 0
KSE2 120725Z 15009KT 27/22 A3001 RMK A01 T02650223  RH  078%=      5-min Rain = 0
KSE2 120726Z 16009KT 27/22 A3001 RMK A01 T02650223  RH  078%=      5-min Rain = 0
KSE2 120727Z 15009KT 27/22 A3001 RMK A01 T02650223  RH  078%=      5-min Rain = 0
KSE2 120728Z 15009KT 27/22 A3001 RMK A01 T02650223  RH  078%=      5-min Rain = 0
KSE2 120729Z 15008KT 27/22 A3001 RMK A01 T02650223  RH  078%=      5-min Rain = 0
KSE2 120730Z 15008KT 27/22 A3001 RMK A01 T02650224  RH  078%=      5-min Rain = 0
KSE2 120731Z 16007KT 26/22 A3001 RMK A01 T02640224  RH  078%=      5-min Rain = 0
KSE2 120732Z 16009KT 26/22 A3001 RMK A01 T02640223  RH  078%=      5-min Rain = 0
KSE2 120733Z 15009KT 26/22 A3001 RMK A01 T02640223  RH  078%=      5-min Rain = 0
KSE2 120734Z 15008KT 26/22 A3001 RMK A01 T02640223  RH  078%=      5-min Rain = 0
KSE2 120735Z 15008KT 26/22 A3001 RMK A01 T02640223  RH  079%=      5-min Rain = 0
KSE2 120736Z 15009KT 26/22 A3001 RMK A01 T02630223  RH  079%=      5-min Rain = 0
KSE2 120737Z 15008KT 26/22 A3001 RMK A01 T02630223  RH  079%=      5-min Rain = 0
KSE2 120738Z 15010KT 26/22 A3001 RMK A01 T02630224  RH  079%=      5-min Rain = 0
KSE2 120739Z 15009KT 26/22 A3001 RMK A01 T02630224  RH  079%=      5-min Rain = 0
KSE2 120740Z 15008KT 26/22 A3001 RMK A01 T02630224  RH  079%=      5-min Rain = 0
KSE2 120741Z 15009KT 26/22 A3001 RMK A01 T02630224  RH  079%=      5-min Rain = 0
KSE2 120742Z 15008KT 26/22 A3001 RMK A01 T02630224  RH  079%=      5-min Rain = 0
KSE2 120743Z 14009KT 26/22 A3001 RMK A01 T02630223  RH  079%=      5-min Rain = 0
KSE2 120744Z 15007KT 26/22 A3001 RMK A01 T02630224  RH  079%=      5-min Rain = 0
KSE2 120745Z 14008KT 26/22 A3001 RMK A01 T02620224  RH  079%=      5-min Rain = 0
KSE2 120746Z 15008KT 26/22 A3001 RMK A01 T02620224  RH  079%=      5-min Rain = 0
KSE2 120747Z 14008KT 26/22 A3001 RMK A01 T02620224  RH  080%=      5-min Rain = 0
KSE2 120748Z 15009KT 26/22 A3001 RMK A01 T02620224  RH  080%=      5-min Rain = 0
KSE2 120749Z 15008KT 26/22 A3001 RMK A01 T02620224  RH  080%=      5-min Rain = 0
KSE2 120750Z 15006KT 26/22 A3001 RMK A01 T02620224  RH  080%=      5-min Rain = 0
KSE2 120751Z 14007KT 26/22 A3001 RMK A01 T02620224  RH  080%=      5-min Rain = 0
KSE2 120752Z 15007KT 26/22 A3001 RMK A01 T02610224  RH  080%=      5-min Rain = 0
KSE2 120753Z 15006KT 26/22 A3001 RMK A01 T02610224  RH  080%=      5-min Rain = 0
KSE2 120754Z 16009KT 26/22 A3001 RMK A01 T02610224  RH  080%=      5-min Rain = 0
KSE2 120755Z 16009KT 26/22 A3001 RMK A01 T02610224  RH  080%=      5-min Rain = 0
KSE2 120756Z 15008KT 26/22 A3001 RMK A01 T02610224  RH  080%=      5-min Rain = 0
KSE2 120757Z 15011KT 26/22 A3001 RMK A01 T02610224  RH  080%=      5-min Rain = 0
KSE2 120758Z 15011KT 26/23 A3001 RMK A01 T02610225  RH  080%=      5-min Rain = 0
KSE2 120759Z 15007KT 26/22 A3001 RMK A01 T02610224  RH  080%=      5-min Rain = 0
KSE2 120800Z 14008KT 26/22 A3001 RMK A01 T02620224  RH  080%=      5-min Rain = 0
KSE2 120801Z 15006KT 26/22 A3001 RMK A01 T02610224  RH  080%=      5-min Rain = 0
KSE2 120802Z 16008G14KT 26/22 A3001 RMK A01 T02610224  RH  080%=      5-min Rain = 0
KSE2 120803Z 15012KT 26/23 A30 RMK A01 T02610225  RH  081%=      5-min Rain = 0
KSE2 120804Z 15014KT 26/23 A30 RMK A01 T02610225  RH  081%=      5-min Rain = 0
KSE2 120805Z 15010KT 26/23 A30 RMK A01 T02610225  RH  080%=      5-min Rain = 0
KSE2 120806Z 15009KT 26/22 A30 RMK A01 T02610224  RH  080%=      5-min Rain = 0
KSE2 120807Z 15010KT 26/23 A30 RMK A01 T02610225  RH  080%=      5-min Rain = 0
KSE2 120808Z 15010G16KT 26/23 A30 RMK A01 T02610225  RH  080%=      5-min Rain = 0
KSE2 120809Z 15011G17KT 26/23 A30 RMK A01 T02610225  RH  081%=      5-min Rain = 0
KSE2 120810Z 15012KT 26/23 A30 RMK A01 T02610225  RH  081%=      5-min Rain = 0
KSE2 120811Z 15012KT 26/23 A30 RMK A01 T02610225  RH  081%=      5-min Rain = 0
KSE2 120812Z 14009KT 26/23 A30 RMK A01 T02610225  RH  081%=      5-min Rain = 0
KSE2 120813Z 15010KT 26/23 A30 RMK A01 T02610225  RH  081%=      5-min Rain = 0
KSE2 120814Z 15012KT 26/23 A30 RMK A01 T02600225  RH  081%=      5-min Rain = 0
KSE2 120815Z 15013G18KT 26/23 A30 RMK A01 T02610225  RH  081%=      5-min Rain = 0
KSE2 120816Z 15009KT 26/23 A30 RMK A01 T02600225  RH  081%=      5-min Rain = 0
KSE2 120817Z 15010KT 26/23 A30 RMK A01 T02600225  RH  081%=      5-min Rain = 0
KSE2 120818Z 15010KT 26/23 A30 RMK A01 T02600225  RH  081%=      5-min Rain = 0
KSE2 120819Z 14008KT 26/23 A30 RMK A01 T02600225  RH  081%=      5-min Rain = 0
KSE2 120820Z 15011G16KT 26/23 A30 RMK A01 T02590225  RH  081%=      5-min Rain = 0
KSE2 120821Z 15009KT 26/23 A30 RMK A01 T02590225  RH  081%=      5-min Rain = 0
KSE2 120822Z 16011KT 26/23 A30 RMK A01 T02590225  RH  081%=      5-min Rain = 0
KSE2 120823Z 15008KT 26/23 A30 RMK A01 T02590225  RH  081%=      5-min Rain = 0
KSE2 120824Z 15009KT 26/22 A30 RMK A01 T02590224  RH  081%=      5-min Rain = 0
KSE2 120825Z 15011KT 26/23 A30 RMK A01 T02590225  RH  081%=      5-min Rain = 0
KSE2 120826Z 15011KT 26/23 A30 RMK A01 T02590225  RH  081%=      5-min Rain = 0
KSE2 120827Z 14013KT 26/23 A30 RMK A01 T02590225  RH  081%=      5-min Rain = 0
KSE2 120828Z 15011KT 26/23 A30 RMK A01 T02590225  RH  081%=      5-min Rain = 0
KSE2 120829Z 15010KT 26/22 A30 RMK A01 T02590224  RH  081%=      5-min Rain = 0
KSE2 120830Z 15010KT 26/22 A30 RMK A01 T02590224  RH  081%=      5-min Rain = 0
KSE2 120831Z 16009KT 26/22 A30 RMK A01 T02580224  RH  081%=      5-min Rain = 0
KSE2 120832Z 15009KT 26/22 A30 RMK A01 T02580224  RH  081%=      5-min Rain = 0
KSE2 120833Z 16010KT 26/22 A30 RMK A01 T02580224  RH  082%=      5-min Rain = 0
KSE2 120834Z 16009KT 26/22 A30 RMK A01 T02580224  RH  082%=      5-min Rain = 0
KSE2 120835Z 16007KT 26/22 A30 RMK A01 T02570224  RH  082%=      5-min Rain = 0
KSE2 120836Z 15007KT 26/22 A30 RMK A01 T02570224  RH  082%=      5-min Rain = 0
KSE2 120837Z 14007KT 26/22 A30 RMK A01 T02570224  RH  082%=      5-min Rain = 0
KSE2 120838Z 14007KT 26/22 A30 RMK A01 T02570224  RH  082%=      5-min Rain = 0
KSE2 120839Z 15007KT 26/22 A30 RMK A01 T02560223  RH  082%=      5-min Rain = 0
KSE2 120840Z 15007KT 26/22 A30 RMK A01 T02560224  RH  082%=      5-min Rain = 0
KSE2 120841Z 14010KT 26/22 A30 RMK A01 T02550223  RH  082%=      5-min Rain = 0
KSE2 120842Z 15009KT 26/22 A30 RMK A01 T02560224  RH  083%=      5-min Rain = 0
KSE2 120843Z 15010G18KT 26/22 A30 RMK A01 T02560224  RH  082%=      5-min Rain = 0
KSE2 120844Z 15010G15KT 26/22 A30 RMK A01 T02550223  RH  082%=      5-min Rain = 0
KSE2 120845Z 16011KT 26/22 A30 RMK A01 T02560223  RH  082%=      5-min Rain = 0
KSE2 120846Z 15010KT 26/22 A30 RMK A01 T02550223  RH  082%=      5-min Rain = 0
KSE2 120847Z 15009KT 26/22 A30 RMK A01 T02550223  RH  082%=      5-min Rain = 0
KSE2 120848Z 15010KT 26/22 A30 RMK A01 T02560223  RH  082%=      5-min Rain = 0
KSE2 120849Z 15010KT 26/22 A30 RMK A01 T02560223  RH  082%=      5-min Rain = 0
KSE2 120850Z 16011G16KT 26/22 A30 RMK A01 T02550223  RH  082%=      5-min Rain = 0
KSE2 120851Z 16012KT 26/22 A30 RMK A01 T02550223  RH  082%=      5-min Rain = 0
KSE2 120852Z 15011KT 26/22 A30 RMK A01 T02550223  RH  082%=      5-min Rain = 0
KSE2 120853Z 16008KT 26/22 A30 RMK A01 T02550223  RH  082%=      5-min Rain = 0
KSE2 120854Z 16009G14KT 26/22 A30 RMK A01 T02550223  RH  082%=      5-min Rain = 0
KSE2 120855Z 15008KT 26/22 A30 RMK A01 T02550223  RH  082%=      5-min Rain = 0
KSE2 120856Z 15009G14KT 25/22 A30 RMK A01 T02540222  RH  083%=      5-min Rain = 0
KSE2 120857Z 15010KT 25/22 A30 RMK A01 T02540222  RH  083%=      5-min Rain = 0
KSE2 120858Z 16010KT 25/22 A30 RMK A01 T02540222  RH  083%=      5-min Rain = 0
KSE2 120859Z 15011KT 25/22 A30 RMK A01 T02540222  RH  083%=      5-min Rain = 0
KSE2 120900Z 15010KT 25/22 A30 RMK A01 T02540222  RH  083%=      5-min Rain = 0
KSE2 120901Z 16010KT 25/22 A30 RMK A01 T02530222  RH  083%=      5-min Rain = 0
KSE2 120902Z 16009KT 25/22 A30 RMK A01 T02530222  RH  083%=      5-min Rain = 0
KSE2 120903Z 16008KT 25/22 A30 RMK A01 T02530222  RH  083%=      5-min Rain = 0
KSE2 120904Z 17009KT 25/22 A30 RMK A01 T02530222  RH  083%=      5-min Rain = 0
KSE2 120905Z 15010KT 25/22 A30 RMK A01 T02530222  RH  083%=      5-min Rain = 0
KSE2 120906Z 15010KT 25/22 A30 RMK A01 T02530222  RH  083%=      5-min Rain = 0
KSE2 120907Z 16010KT 25/22 A30 RMK A01 T02530222  RH  083%=      5-min Rain = 0
KSE2 120908Z 16009KT 25/22 A30 RMK A01 T02520222  RH  083%=      5-min Rain = 0
KSE2 120909Z 16008KT 25/22 A30 RMK A01 T02520221  RH  083%=      5-min Rain = 0
KSE2 120910Z 16007KT 25/22 A30 RMK A01 T02520222  RH  083%=      5-min Rain = 0
KSE2 120911Z 16009KT 25/22 A30 RMK A01 T02520221  RH  083%=      5-min Rain = 0
KSE2 120912Z 15007KT 25/22 A30 RMK A01 T02520221  RH  083%=      5-min Rain = 0
KSE2 120913Z 16008KT 25/22 A30 RMK A01 T02510221  RH  083%=      5-min Rain = 0
KSE2 120914Z 16011G16KT 25/22 A30 RMK A01 T02510221  RH  083%=      5-min Rain = 0
KSE2 120915Z 17012KT 25/22 A30 RMK A01 T02510221  RH  083%=      5-min Rain = 0
KSE2 120916Z 17010KT 25/22 A30 RMK A01 T02520221  RH  083%=      5-min Rain = 0
KSE2 120917Z 17008KT 25/22 A30 RMK A01 T02510221  RH  083%=      5-min Rain = 0
KSE2 120918Z 15009KT 25/22 A30 RMK A01 T02510221  RH  083%=      5-min Rain = 0
KSE2 120919Z 17008KT 25/22 A30 RMK A01 T02510221  RH  083%=      5-min Rain = 0
KSE2 120920Z 17009KT 25/22 A30 RMK A01 T02510221  RH  083%=      5-min Rain = 0
KSE2 120921Z 16009KT 25/22 A30 RMK A01 T02500221  RH  083%=      5-min Rain = 0
KSE2 120922Z 17010KT 25/22 A30 RMK A01 T02500221  RH  084%=      5-min Rain = 0
KSE2 120923Z 16008KT 25/22 A30 RMK A01 T02500220  RH  084%=      5-min Rain = 0
KSE2 120924Z 16008KT 25/22 A30 RMK A01 T02500220  RH  084%=      5-min Rain = 0
KSE2 120925Z 17010KT 25/22 A30 RMK A01 T02500221  RH  084%=      5-min Rain = 0
KSE2 120926Z 15009KT 25/22 A30 RMK A01 T02500220  RH  084%=      5-min Rain = 0
KSE2 120927Z 16011G16KT 25/22 A30 RMK A01 T02500220  RH  084%=      5-min Rain = 0
KSE2 120928Z 16009KT 25/22 A30 RMK A01 T02500220  RH  084%=      5-min Rain = 0
KSE2 120929Z 16010KT 25/22 A30 RMK A01 T02500220  RH  084%=      5-min Rain = 0
KSE2 120930Z 16009KT 25/22 A30 RMK A01 T02500220  RH  084%=      5-min Rain = 0
KSE2 120931Z 16009G14KT 25/22 A30 RMK A01 T02500220  RH  084%=      5-min Rain = 0
KSE2 120932Z 16010KT 25/22 A30 RMK A01 T02500220  RH  084%=      5-min Rain = 0
KSE2 120933Z 16008KT 25/22 A30 RMK A01 T02490220  RH  084%=      5-min Rain = 0
KSE2 120934Z 16008G13KT 25/22 A30 RMK A01 T02490219  RH  084%=      5-min Rain = 0
KSE2 120935Z 16011KT 25/22 A30 RMK A01 T02490220  RH  084%=      5-min Rain = 0
KSE2 120936Z 16008KT 25/22 A30 RMK A01 T02490220  RH  084%=      5-min Rain = 0
KSE2 120937Z 17009KT 25/22 A30 RMK A01 T02490220  RH  084%=      5-min Rain = 0
KSE2 120938Z 16010KT 25/22 A30 RMK A01 T02490220  RH  084%=      5-min Rain = 0
KSE2 120939Z 17007KT 25/22 A30 RMK A01 T02480220  RH  084%=      5-min Rain = 0
KSE2 120940Z 16009KT 25/22 A30 RMK A01 T02480220  RH  084%=      5-min Rain = 0
KSE2 120941Z 16008KT 25/22 A30 RMK A01 T02480219  RH  084%=      5-min Rain = 0
KSE2 120942Z 15009KT 25/22 A30 RMK A01 T02480220  RH  084%=      5-min Rain = 0
KSE2 120943Z 16010KT 25/22 A30 RMK A01 T02470219  RH  084%=      5-min Rain = 0
KSE2 120944Z 16007KT 25/22 A30 RMK A01 T02470219  RH  084%=      5-min Rain = 0
KSE2 120945Z 16007KT 25/22 A30 RMK A01 T02470219  RH  084%=      5-min Rain = 0
KSE2 120946Z 16009KT 25/22 A30 RMK A01 T02480220  RH  084%=      5-min Rain = 0
KSE2 120947Z 18008KT 25/22 A30 RMK A01 T02470219  RH  085%=      5-min Rain = 0
KSE2 120948Z 18007G12KT 25/22 A30 RMK A01 T02470219  RH  085%=      5-min Rain = 0
KSE2 120949Z 18007KT 25/22 A30 RMK A01 T02470219  RH  085%=      5-min Rain = 0
KSE2 120950Z 17008KT 25/22 A30 RMK A01 T02460219  RH  085%=      5-min Rain = 0
KSE2 120951Z 17008KT 25/22 A30 RMK A01 T02460219  RH  085%=      5-min Rain = 0
KSE2 120952Z 18008KT 25/22 A30 RMK A01 T02460219  RH  085%=      5-min Rain = 0
KSE2 120953Z 18006KT 25/22 A30 RMK A01 T02460219  RH  085%=      5-min Rain = 0
KSE2 120954Z 16006KT 25/22 A30 RMK A01 T02460219  RH  085%=      5-min Rain = 0
KSE2 120955Z 17008KT 25/22 A30 RMK A01 T02460219  RH  085%=      5-min Rain = 0
KSE2 120956Z 17006KT 25/22 A30 RMK A01 T02450219  RH  085%=      5-min Rain = 0
KSE2 120957Z 16007KT 25/22 A30 RMK A01 T02450218  RH  085%=      5-min Rain = 0
KSE2 120958Z 17007KT 25/22 A30 RMK A01 T02450218  RH  085%=      5-min Rain = 0
KSE2 120959Z 17009KT 25/22 A30 RMK A01 T02450219  RH  085%=      5-min Rain = 0
KSE2 121000Z 17008KT 25/22 A30 RMK A01 T02450219  RH  086%=      5-min Rain = 0
KSE2 121001Z 17008KT 25/22 A30 RMK A01 T02450219  RH  085%=      5-min Rain = 0
KSE2 121002Z 17008KT 25/22 A30 RMK A01 T02450219  RH  086%=      5-min Rain = 0
KSE2 121003Z 16008KT 25/22 A30 RMK A01 T02450219  RH  086%=      5-min Rain = 0
KSE2 121004Z 17007KT 24/22 A30 RMK A01 T02440219  RH  086%=      5-min Rain = 0
KSE2 121005Z 17005KT 24/22 A30 RMK A01 T02440219  RH  086%=      5-min Rain = 0
KSE2 121006Z 17007KT 24/22 A30 RMK A01 T02440218  RH  086%=      5-min Rain = 0
KSE2 121007Z 16009KT 24/22 A30 RMK A01 T02440219  RH  086%=      5-min Rain = 0
KSE2 121008Z 17006KT 24/22 A30 RMK A01 T02440219  RH  086%=      5-min Rain = 0
KSE2 121009Z 17008KT 24/22 A30 RMK A01 T02430218  RH  086%=      5-min Rain = 0
KSE2 121010Z 17005KT 24/22 A30 RMK A01 T02430218  RH  086%=      5-min Rain = 0
KSE2 121011Z 17006KT 24/22 A30 RMK A01 T02430218  RH  086%=      5-min Rain = 0
KSE2 121012Z 17006KT 24/22 A30 RMK A01 T02430218  RH  086%=      5-min Rain = 0
KSE2 121013Z 17007KT 24/22 A30 RMK A01 T02420218  RH  086%=      5-min Rain = 0
KSE2 121014Z 17006KT 24/22 A2999 RMK A01 T02420218  RH  086%=      5-min Rain = 0
KSE2 121015Z 17007KT 24/22 A2999 RMK A01 T02420218  RH  086%=      5-min Rain = 0
KSE2 121016Z 18007KT 24/22 A2999 RMK A01 T02420218  RH  087%=      5-min Rain = 0
KSE2 121017Z 17006KT 24/22 A2999 RMK A01 T02420218  RH  087%=      5-min Rain = 0
KSE2 121018Z 17008KT 24/22 A2999 RMK A01 T02420218  RH  087%=      5-min Rain = 0
KSE2 121019Z 16006KT 24/22 A2999 RMK A01 T02420218  RH  087%=      5-min Rain = 0
KSE2 121020Z 17007KT 24/22 A2999 RMK A01 T02420218  RH  087%=      5-min Rain = 0
KSE2 121021Z 17005KT 24/22 A2999 RMK A01 T02410218  RH  087%=      5-min Rain = 0
KSE2 121022Z 17004KT 24/22 A2999 RMK A01 T02410218  RH  087%=      5-min Rain = 0
KSE2 121023Z 17007KT 24/22 A2999 RMK A01 T02410218  RH  087%=      5-min Rain = 0
KSE2 121024Z 18007KT 24/22 A2999 RMK A01 T02410218  RH  087%=      5-min Rain = 0
KSE2 121025Z 17006KT 24/22 A2999 RMK A01 T02410218  RH  087%=      5-min Rain = 0
KSE2 121026Z 17007KT 24/22 A2999 RMK A01 T02410218  RH  087%=      5-min Rain = 0
KSE2 121027Z 17006KT 24/22 A2999 RMK A01 T02410218  RH  087%=      5-min Rain = 0
KSE2 121028Z 16007KT 24/22 A2999 RMK A01 T02400218  RH  087%=      5-min Rain = 0
KSE2 121029Z 17006KT 24/22 A2999 RMK A01 T02410218  RH  087%=      5-min Rain = 0
KSE2 121030Z 16005KT 24/22 A2999 RMK A01 T02400218  RH  087%=      5-min Rain = 0
KSE2 121031Z 16007KT 24/22 A30 RMK A01 T02400218  RH  087%=      5-min Rain = 0
KSE2 121032Z 16006KT 24/22 A30 RMK A01 T02400218  RH  087%=      5-min Rain = 0
KSE2 121033Z 16006KT 24/22 A30 RMK A01 T02400218  RH  087%=      5-min Rain = 0
KSE2 121034Z 17007KT 24/22 A30 RMK A01 T02390217  RH  087%=      5-min Rain = 0
KSE2 121035Z 16005KT 24/22 A30 RMK A01 T02390217  RH  087%=      5-min Rain = 0
KSE2 121036Z 16007KT 24/22 A30 RMK A01 T02400217  RH  087%=      5-min Rain = 0
KSE2 121037Z 17006KT 24/22 A30 RMK A01 T02390217  RH  088%=      5-min Rain = 0
KSE2 121038Z 17007KT 24/22 A30 RMK A01 T02390217  RH  088%=      5-min Rain = 0
KSE2 121039Z 17007KT 24/22 A30 RMK A01 T02390217  RH  088%=      5-min Rain = 0
KSE2 121040Z 17007KT 24/22 A30 RMK A01 T02390217  RH  088%=      5-min Rain = 0
KSE2 121041Z 17007KT 24/22 A30 RMK A01 T02390218  RH  088%=      5-min Rain = 0
KSE2 121042Z 16006KT 24/22 A30 RMK A01 T02390217  RH  088%=      5-min Rain = 0
KSE2 121043Z 17006KT 24/22 A30 RMK A01 T02390217  RH  088%=      5-min Rain = 0
KSE2 121044Z 16006KT 24/22 A30 RMK A01 T02380217  RH  088%=      5-min Rain = 0
KSE2 121045Z 16007KT 24/22 A30 RMK A01 T02380217  RH  088%=      5-min Rain = 0
KSE2 121046Z 16008KT 24/22 A30 RMK A01 T02380217  RH  088%=      5-min Rain = 0
KSE2 121047Z 15005KT 24/22 A30 RMK A01 T02380217  RH  088%=      5-min Rain = 0
KSE2 121048Z 15005KT 24/22 A30 RMK A01 T02380216  RH  088%=      5-min Rain = 0
KSE2 121049Z 16006KT 24/22 A30 RMK A01 T02380217  RH  088%=      5-min Rain = 0
KSE2 121050Z 15008KT 24/22 A30 RMK A01 T02370216  RH  088%=      5-min Rain = 0
KSE2 121051Z 16007KT 24/22 A30 RMK A01 T02370217  RH  088%=      5-min Rain = 0
KSE2 121052Z 16007KT 24/22 A30 RMK A01 T02370216  RH  088%=      5-min Rain = 0
KSE2 121053Z 16007KT 24/22 A2999 RMK A01 T02370216  RH  088%=      5-min Rain = 0
KSE2 121054Z 16007KT 24/22 A2999 RMK A01 T02370216  RH  088%=      5-min Rain = 0
KSE2 121055Z 16006KT 24/22 A2999 RMK A01 T02370216  RH  088%=      5-min Rain = 0
KSE2 121056Z 16007KT 24/22 A2999 RMK A01 T02370216  RH  088%=      5-min Rain = 0
KSE2 121057Z 16007KT 24/22 A30 RMK A01 T02360215  RH  088%=      5-min Rain = 0
KSE2 121058Z 17006KT 24/22 A30 RMK A01 T02360216  RH  088%=      5-min Rain = 0
KSE2 121059Z 17006KT 24/22 A30 RMK A01 T02360216  RH  088%=      5-min Rain = 0
KSE2 121100Z 17008KT 24/22 A30 RMK A01 T02360216  RH  088%=      5-min Rain = 0
KSE2 121101Z 16007KT 24/22 A30 RMK A01 T02360216  RH  088%=      5-min Rain = 0
KSE2 121102Z 17006KT 24/22 A30 RMK A01 T02360216  RH  088%=      5-min Rain = 0
KSE2 121103Z 17006KT 24/22 A30 RMK A01 T02360215  RH  088%=      5-min Rain = 0
KSE2 121104Z 16007KT 24/22 A30 RMK A01 T02360215  RH  088%=      5-min Rain = 0
KSE2 121105Z 16007KT 24/22 A30 RMK A01 T02360215  RH  088%=      5-min Rain = 0
KSE2 121106Z 16005KT 24/22 A30 RMK A01 T02350215  RH  088%=      5-min Rain = 0
KSE2 121107Z 16007KT 24/22 A30 RMK A01 T02350215  RH  088%=      5-min Rain = 0
KSE2 121108Z 16007KT 24/22 A30 RMK A01 T02350215  RH  088%=      5-min Rain = 0
KSE2 121109Z 15008KT 24/22 A30 RMK A01 T02350215  RH  088%=      5-min Rain = 0
KSE2 121110Z 15007KT 24/22 A30 RMK A01 T02350215  RH  088%=      5-min Rain = 0
KSE2 121111Z 15007KT 24/22 A30 RMK A01 T02350215  RH  088%=      5-min Rain = 0
KSE2 121112Z 15006KT 24/22 A30 RMK A01 T02350215  RH  088%=      5-min Rain = 0
KSE2 121113Z 15007KT 23/21 A30 RMK A01 T02340214  RH  088%=      5-min Rain = 0
KSE2 121114Z 15006KT 24/22 A30 RMK A01 T02350215  RH  089%=      5-min Rain = 0
KSE2 121115Z 16007G12KT 23/21 A30 RMK A01 T02340214  RH  089%=      5-min Rain = 0
KSE2 121116Z 15006KT 23/21 A30 RMK A01 T02340214  RH  089%=      5-min Rain = 0
KSE2 121117Z 16006KT 23/21 A30 RMK A01 T02340214  RH  089%=      5-min Rain = 0
KSE2 121118Z 15006KT 23/21 A30 RMK A01 T02340214  RH  089%=      5-min Rain = 0
KSE2 121119Z 15005KT 23/22 A30 RMK A01 T02340215  RH  089%=      5-min Rain = 0
KSE2 121120Z 14006KT 23/21 A30 RMK A01 T02340214  RH  089%=      5-min Rain = 0
KSE2 121121Z 15006KT 23/21 A30 RMK A01 T02340214  RH  089%=      5-min Rain = 0
KSE2 121122Z 14006KT 23/21 A3001 RMK A01 T02340214  RH  089%=      5-min Rain = 0
KSE2 121123Z 15006KT 23/21 A3001 RMK A01 T02340214  RH  089%=      5-min Rain = 0
KSE2 121124Z 14006KT 23/21 A3001 RMK A01 T02330214  RH  089%=      5-min Rain = 0
KSE2 121125Z 14005KT 23/21 A3001 RMK A01 T02330214  RH  089%=      5-min Rain = 0
KSE2 121126Z 14006KT 23/21 A3001 RMK A01 T02330214  RH  089%=      5-min Rain = 0
KSE2 121127Z 14006KT 23/21 A3001 RMK A01 T02330214  RH  089%=      5-min Rain = 0
KSE2 121128Z 14005KT 23/21 A3001 RMK A01 T02320214  RH  089%=      5-min Rain = 0
KSE2 121129Z 14006KT 23/21 A3001 RMK A01 T02320214  RH  089%=      5-min Rain = 0
KSE2 121130Z 14006KT 23/21 A3001 RMK A01 T02320213  RH  089%=      5-min Rain = 0
KSE2 121131Z 15005KT 23/21 A3001 RMK A01 T02320213  RH  089%=      5-min Rain = 0
KSE2 121132Z 15005KT 23/21 A3001 RMK A01 T02320214  RH  089%=      5-min Rain = 0
KSE2 121133Z 15006KT 23/21 A3001 RMK A01 T02320214  RH  090%=      5-min Rain = 0
KSE2 121134Z 15005KT 23/21 A3001 RMK A01 T02320214  RH  090%=      5-min Rain = 0
KSE2 121135Z 15006KT 23/21 A3001 RMK A01 T02320214  RH  089%=      5-min Rain = 0
KSE2 121136Z 15006KT 23/21 A3001 RMK A01 T02310213  RH  090%=      5-min Rain = 0
KSE2 121137Z 15007KT 23/21 A3001 RMK A01 T02310214  RH  090%=      5-min Rain = 0
KSE2 121138Z 14007KT 23/21 A3001 RMK A01 T02310214  RH  090%=      5-min Rain = 0
KSE2 121139Z 15006KT 23/21 A3001 RMK A01 T02320214  RH  090%=      5-min Rain = 0
KSE2 121140Z 14007KT 23/21 A3001 RMK A01 T02310213  RH  090%=      5-min Rain = 0
KSE2 121141Z 15007KT 23/21 A3001 RMK A01 T02310213  RH  090%=      5-min Rain = 0
KSE2 121142Z 14007KT 23/21 A3001 RMK A01 T02310213  RH  090%=      5-min Rain = 0
KSE2 121143Z 14007KT 23/21 A3001 RMK A01 T02310213  RH  090%=      5-min Rain = 0
KSE2 121144Z 15007KT 23/21 A3001 RMK A01 T02300213  RH  090%=      5-min Rain = 0
KSE2 121145Z 14007KT 23/21 A3001 RMK A01 T02300214  RH  090%=      5-min Rain = 0
KSE2 121146Z 14006KT 23/21 A3001 RMK A01 T02310214  RH  090%=      5-min Rain = 0
KSE2 121147Z 14006KT 23/21 A3001 RMK A01 T02310214  RH  090%=      5-min Rain = 0
KSE2 121148Z 14007KT 23/21 A3001 RMK A01 T02300213  RH  090%=      5-min Rain = 0
KSE2 121149Z 15007KT 23/21 A3001 RMK A01 T02300213  RH  090%=      5-min Rain = 0
KSE2 121150Z 15007KT 23/21 A3001 RMK A01 T02300214  RH  090%=      5-min Rain = 0
KSE2 121151Z 14007KT 23/21 A3001 RMK A01 T02300214  RH  090%=      5-min Rain = 0
KSE2 121152Z 15006KT 23/21 A3001 RMK A01 T02300214  RH  091%=      5-min Rain = 0
KSE2 121153Z 15007KT 23/21 A3001 RMK A01 T02300214  RH  091%=      5-min Rain = 0
KSE2 121154Z 15008KT 23/21 A3001 RMK A01 T02300214  RH  091%=      5-min Rain = 0
KSE2 121155Z 14008KT 23/21 A3001 RMK A01 T02300214  RH  091%=      5-min Rain = 0
KSE2 121156Z 15008KT 23/21 A3001 RMK A01 T02300214  RH  091%=      5-min Rain = 0
KSE2 121157Z 14007KT 23/21 A3001 RMK A01 T02300214  RH  091%=      5-min Rain = 0
KSE2 121158Z 15008KT 23/21 A3001 RMK A01 T02300213  RH  091%=      5-min Rain = 0
KSE2 121159Z 14009KT 23/21 A3001 RMK A01 T02300214  RH  091%=      5-min Rain = 0
KSE2 121200Z 14007KT 23/21 A3001 RMK A01 T02300214  RH  091%=      5-min Rain = 0
KSE2 121201Z 15007KT 23/21 A3001 RMK A01 T02290214  RH  091%=      5-min Rain = 0
KSE2 121202Z 15007KT 23/21 A3001 RMK A01 T02300214  RH  091%=      5-min Rain = 0
KSE2 121203Z 14008KT 23/21 A3001 RMK A01 T02300214  RH  091%=      5-min Rain = 0
KSE2 121204Z 14008KT 23/21 A3001 RMK A01 T02300214  RH  091%=      5-min Rain = 0
KSE2 121205Z 14008KT 23/21 A3001 RMK A01 T02300214  RH  091%=      5-min Rain = 0
KSE2 121206Z 14007KT 23/21 A3002 RMK A01 T02290214  RH  091%=      5-min Rain = 0
KSE2 121207Z 14009KT 23/21 A3002 RMK A01 T02290214  RH  091%=      5-min Rain = 0
KSE2 121208Z 14009KT 23/21 A3002 RMK A01 T02290214  RH  091%=      5-min Rain = 0
KSE2 121209Z 14009KT 23/21 A3002 RMK A01 T02290214  RH  091%=      5-min Rain = 0
KSE2 121210Z 14009KT 23/21 A3002 RMK A01 T02290214  RH  091%=      5-min Rain = 0
KSE2 121211Z 15008KT 23/21 A3002 RMK A01 T02290213  RH  091%=      5-min Rain = 0
KSE2 121212Z 14007KT 23/21 A3002 RMK A01 T02290214  RH  091%=      5-min Rain = 0
KSE2 121213Z 15007KT 23/21 A3002 RMK A01 T02290213  RH  091%=      5-min Rain = 0
KSE2 121214Z 14008KT 23/21 A3002 RMK A01 T02290214  RH  091%=      5-min Rain = 0
KSE2 121215Z 15008KT 23/21 A3002 RMK A01 T02290214  RH  091%=      5-min Rain = 0
KSE2 121216Z 14007KT 23/21 A3002 RMK A01 T02290214  RH  091%=      5-min Rain = 0
KSE2 121217Z 15008KT 23/21 A3002 RMK A01 T02290213  RH  091%=      5-min Rain = 0
KSE2 121218Z 14007KT 23/21 A3002 RMK A01 T02290213  RH  091%=      5-min Rain = 0
KSE2 121219Z 14006KT 23/21 A3002 RMK A01 T02290213  RH  091%=      5-min Rain = 0
KSE2 121220Z 14007KT 23/21 A3002 RMK A01 T02290213  RH  091%=      5-min Rain = 0
KSE2 121221Z 14008KT 23/21 A3002 RMK A01 T02290213  RH  091%=      5-min Rain = 0
KSE2 121222Z 14007KT 23/21 A3002 RMK A01 T02290213  RH  091%=      5-min Rain = 0
KSE2 121223Z 14007KT 23/21 A3002 RMK A01 T02300214  RH  091%=      5-min Rain = 0
KSE2 121224Z 14007KT 23/21 A3002 RMK A01 T02290213  RH  091%=      5-min Rain = 0
KSE2 121225Z 14008KT 23/21 A3002 RMK A01 T02300214  RH  091%=      5-min Rain = 0
KSE2 121226Z 14008KT 23/21 A3002 RMK A01 T02300214  RH  091%=      5-min Rain = 0
KSE2 121227Z 14007KT 23/21 A3002 RMK A01 T02290213  RH  091%=      5-min Rain = 0
KSE2 121228Z 13006KT 23/21 A3002 RMK A01 T02290213  RH  090%=      5-min Rain = 0
KSE2 121229Z 14008KT 23/21 A3002 RMK A01 T02290213  RH  090%=      5-min Rain = 0
KSE2 121230Z 14007KT 23/21 A3002 RMK A01 T02300213  RH  090%=      5-min Rain = 0
KSE2 121231Z 14007KT 23/21 A3002 RMK A01 T02300213  RH  090%=      5-min Rain = 0
KSE2 121232Z 14006KT 23/21 A3002 RMK A01 T02300213  RH  090%=      5-min Rain = 0
KSE2 121233Z 14007KT 23/21 A3002 RMK A01 T02300213  RH  090%=      5-min Rain = 0
KSE2 121234Z 14005KT 23/21 A3002 RMK A01 T02300213  RH  090%=      5-min Rain = 0
KSE2 121235Z 13006KT 23/21 A3002 RMK A01 T02300213  RH  090%=      5-min Rain = 0
KSE2 121236Z 14006KT 23/21 A3002 RMK A01 T02300213  RH  090%=      5-min Rain = 0
KSE2 121237Z 14006KT 23/21 A3002 RMK A01 T02310213  RH  090%=      5-min Rain = 0
KSE2 121238Z 14006KT 23/21 A3002 RMK A01 T02310213  RH  090%=      5-min Rain = 0
KSE2 121239Z 14007KT 23/21 A3002 RMK A01 T02310213  RH  090%=      5-min Rain = 0
KSE2 121240Z 14005KT 23/21 A3002 RMK A01 T02310213  RH  090%=      5-min Rain = 0
KSE2 121241Z 14007KT 23/21 A3002 RMK A01 T02320213  RH  089%=      5-min Rain = 0
KSE2 121242Z 13007KT 23/21 A3002 RMK A01 T02310213  RH  089%=      5-min Rain = 0
KSE2 121243Z 14006KT 23/21 A3002 RMK A01 T02310213  RH  089%=      5-min Rain = 0
KSE2 121244Z 13007KT 23/21 A3002 RMK A01 T02320213  RH  089%=      5-min Rain = 0
KSE2 121245Z 13007KT 23/21 A3002 RMK A01 T02320213  RH  089%=      5-min Rain = 0
KSE2 121246Z 14007KT 23/21 A3002 RMK A01 T02320212  RH  089%=      5-min Rain = 0
KSE2 121247Z 14008KT 23/21 A3002 RMK A01 T02320212  RH  089%=      5-min Rain = 0
KSE2 121248Z 15007KT 23/21 A3002 RMK A01 T02320212  RH  089%=      5-min Rain = 0
KSE2 121249Z 14007KT 23/21 A3002 RMK A01 T02320212  RH  088%=      5-min Rain = 0
KSE2 121250Z 15007KT 23/21 A3002 RMK A01 T02330212  RH  088%=      5-min Rain = 0
KSE2 121251Z 16008KT 23/21 A3002 RMK A01 T02330213  RH  088%=      5-min Rain = 0
KSE2 121252Z 14008KT 23/21 A3002 RMK A01 T02330212  RH  088%=      5-min Rain = 0
KSE2 121253Z 14007KT 23/21 A3002 RMK A01 T02330212  RH  088%=      5-min Rain = 0
KSE2 121254Z 15006KT 23/21 A3002 RMK A01 T02330212  RH  088%=      5-min Rain = 0
KSE2 121255Z 14008KT 23/21 A3002 RMK A01 T02340213  RH  088%=      5-min Rain = 0
KSE2 121256Z 15008KT 23/21 A3002 RMK A01 T02340213  RH  087%=      5-min Rain = 0
KSE2 121257Z 14009KT 24/21 A3002 RMK A01 T02350212  RH  087%=      5-min Rain = 0
KSE2 121258Z 15008KT 24/21 A3002 RMK A01 T02350212  RH  087%=      5-min Rain = 0
KSE2 121259Z 16009KT 24/21 A3002 RMK A01 T02350213  RH  087%=      5-min Rain = 0
KSE2 121300Z 15008KT 24/21 A3002 RMK A01 T02350212  RH  087%=      5-min Rain = 0
KSE2 121301Z 16008KT 24/21 A3002 RMK A01 T02360213  RH  087%=      5-min Rain = 0
KSE2 121302Z 16007KT 24/21 A3002 RMK A01 T02360213  RH  087%=      5-min Rain = 0
KSE2 121303Z 15007KT 24/21 A3002 RMK A01 T02360213  RH  087%=      5-min Rain = 0
KSE2 121304Z 16008KT 24/21 A3002 RMK A01 T02370213  RH  086%=      5-min Rain = 0
KSE2 121305Z 15007KT 24/21 A3002 RMK A01 T02370212  RH  086%=      5-min Rain = 0
KSE2 121306Z 17009KT 24/21 A3002 RMK A01 T02380213  RH  086%=      5-min Rain = 0
KSE2 121307Z 15008KT 24/21 A3002 RMK A01 T02380213  RH  086%=      5-min Rain = 0
KSE2 121308Z 16008KT 24/21 A3002 RMK A01 T02380213  RH  085%=      5-min Rain = 0
KSE2 121309Z 16009KT 24/21 A3002 RMK A01 T02390213  RH  085%=      5-min Rain = 0
KSE2 121310Z 16008KT 24/21 A3002 RMK A01 T02390213  RH  085%=      5-min Rain = 0
KSE2 121311Z 16008KT 24/21 A3002 RMK A01 T02390213  RH  085%=      5-min Rain = 0
KSE2 121312Z 15009KT 24/21 A3002 RMK A01 T02390213  RH  085%=      5-min Rain = 0
KSE2 121313Z 15011KT 24/21 A3002 RMK A01 T02400213  RH  085%=      5-min Rain = 0
KSE2 121314Z 16011KT 24/21 A3002 RMK A01 T02400212  RH  085%=      5-min Rain = 0
KSE2 121315Z 16008KT 24/21 A3002 RMK A01 T02400212  RH  085%=      5-min Rain = 0
KSE2 121316Z 16007KT 24/21 A3002 RMK A01 T02410213  RH  085%=      5-min Rain = 0
KSE2 121317Z 16008KT 24/21 A3002 RMK A01 T02420213  RH  084%=      5-min Rain = 0
KSE2 121318Z 16009KT 24/21 A3002 RMK A01 T02420213  RH  084%=      5-min Rain = 0
KSE2 121319Z 16009KT 24/21 A3002 RMK A01 T02420213  RH  083%=      5-min Rain = 0
KSE2 121320Z 15010KT 24/21 A3002 RMK A01 T02430213  RH  083%=      5-min Rain = 0
KSE2 121321Z 16007KT 24/21 A3002 RMK A01 T02430213  RH  083%=      5-min Rain = 0
KSE2 121322Z 15008KT 24/21 A3002 RMK A01 T02440213  RH  083%=      5-min Rain = 0
KSE2 121323Z 16009KT 25/21 A3002 RMK A01 T02450213  RH  082%=      5-min Rain = 0
KSE2 121324Z 16010KT 25/21 A3002 RMK A01 T02450213  RH  082%=      5-min Rain = 0
KSE2 121325Z 17008KT 25/21 A3002 RMK A01 T02450213  RH  082%=      5-min Rain = 0
KSE2 121326Z 17007KT 25/21 A3002 RMK A01 T02460214  RH  082%=      5-min Rain = 0
KSE2 121327Z 16007KT 25/21 A3002 RMK A01 T02470213  RH  082%=      5-min Rain = 0
KSE2 121328Z 16007KT 25/21 A3002 RMK A01 T02480213  RH  081%=      5-min Rain = 0
KSE2 121329Z 16006KT 25/21 A3002 RMK A01 T02480213  RH  081%=      5-min Rain = 0
KSE2 121330Z 15005G10KT 25/21 A3003 RMK A01 T02490213  RH  080%=      5-min Rain = 0
KSE2 121331Z 15008KT 25/21 A3003 RMK A01 T02500212  RH  080%=      5-min Rain = 0
KSE2 121332Z 17007KT 25/21 A3003 RMK A01 T02500213  RH  080%=      5-min Rain = 0
KSE2 121333Z 17009KT 25/21 A3003 RMK A01 T02500211  RH  079%=      5-min Rain = 0
KSE2 121334Z 17010KT 25/21 A3003 RMK A01 T02510210  RH  078%=      5-min Rain = 0
KSE2 121335Z 17007KT 25/21 A3003 RMK A01 T02510211  RH  079%=      5-min Rain = 0
KSE2 121336Z 16007KT 25/21 A3003 RMK A01 T02510211  RH  079%=      5-min Rain = 0
KSE2 121337Z 16006KT 25/21 A3003 RMK A01 T02510212  RH  079%=      5-min Rain = 0
KSE2 121338Z 16007KT 25/21 A3003 RMK A01 T02520212  RH  078%=      5-min Rain = 0
KSE2 121339Z 17005KT 25/21 A3003 RMK A01 T02540211  RH  077%=      5-min Rain = 0
KSE2 121340Z 18007KT 26/21 A3003 RMK A01 T02550211  RH  077%=      5-min Rain = 0
KSE2 121341Z 17010KT 26/21 A3003 RMK A01 T02560210  RH  076%=      5-min Rain = 0
KSE2 121342Z 17009KT 26/21 A3003 RMK A01 T02560210  RH  076%=      5-min Rain = 0
KSE2 121343Z 18007KT 26/21 A3003 RMK A01 T02550209  RH  076%=      5-min Rain = 0
KSE2 121344Z 18010KT 26/21 A3003 RMK A01 T02550209  RH  076%=      5-min Rain = 0
KSE2 121345Z 16010KT 26/21 A3003 RMK A01 T02550209  RH  076%=      5-min Rain = 0
KSE2 121346Z 16008KT 26/21 A3003 RMK A01 T02550207  RH  075%=      5-min Rain = 0
KSE2 121347Z 16010KT 26/21 A3003 RMK A01 T02560207  RH  074%=      5-min Rain = 0
KSE2 121348Z 16008KT 26/21 A3003 RMK A01 T02560205  RH  073%=      5-min Rain = 0
KSE2 121349Z 16010KT 26/21 A3003 RMK A01 T02570206  RH  073%=      5-min Rain = 0
KSE2 121350Z 16008KT 26/21 A3003 RMK A01 T02570206  RH  073%=      5-min Rain = 0
KSE2 121351Z 17006KT 26/21 A3003 RMK A01 T02580207  RH  073%=      5-min Rain = 0
KSE2 121352Z 17005KT 26/21 A3003 RMK A01 T02600207  RH  073%=      5-min Rain = 0
KSE2 121353Z 16007G12KT 26/21 A3003 RMK A01 T02630207  RH  071%=      5-min Rain = 0
KSE2 121354Z 16009KT 26/21 A3003 RMK A01 T02640206  RH  070%=      5-min Rain = 0
KSE2 121355Z 16009KT 26/20 A3003 RMK A01 T02630204  RH  070%=      5-min Rain = 0
KSE2 121356Z 18012KT 26/20 A3003 RMK A01 T02630202  RH  069%=      5-min Rain = 0
KSE2 121357Z 17011KT 26/20 A3003 RMK A01 T02620201  RH  069%=      5-min Rain = 0
KSE2 121358Z 16010KT 26/20 A3003 RMK A01 T02610202  RH  070%=      5-min Rain = 0
KSE2 121359Z 18008G13KT 26/20 A3003 RMK A01 T02610202  RH  070%=      5-min Rain = 0
KSE2 121400Z 16009KT 26/20 A3003 RMK A01 T02620202  RH  070%=      5-min Rain = 0
KSE2 121401Z 17011KT 26/20 A3003 RMK A01 T02630202  RH  069%=      5-min Rain = 0
KSE2 121402Z 17007KT 26/20 A3003 RMK A01 T02630202  RH  069%=      5-min Rain = 0
KSE2 121403Z 18009KT 27/20 A3003 RMK A01 T02650202  RH  069%=      5-min Rain = 0
KSE2 121404Z 18011KT 27/20 A3003 RMK A01 T02660201  RH  067%=      5-min Rain = 0
KSE2 121405Z 18010KT 27/20 A3003 RMK A01 T02650201  RH  068%=      5-min Rain = 0
KSE2 121406Z 17010KT 27/20 A3003 RMK A01 T02650200  RH  067%=      5-min Rain = 0
KSE2 121407Z 18009KT 27/20 A3003 RMK A01 T02660199  RH  067%=      5-min Rain = 0
KSE2 121408Z 18009KT 27/20 A3003 RMK A01 T02670199  RH  066%=      5-min Rain = 0
KSE2 121409Z 17009KT 27/20 A3003 RMK A01 T02670200  RH  067%=      5-min Rain = 0
KSE2 121410Z 18010KT 27/20 A3003 RMK A01 T02680199  RH  066%=      5-min Rain = 0
KSE2 121411Z 17008KT 27/20 A3004 RMK A01 T02680200  RH  066%=      5-min Rain = 0
KSE2 121412Z 16007KT 27/20 A3004 RMK A01 T02690201  RH  066%=      5-min Rain = 0
KSE2 121413Z 16010KT 27/20 A3004 RMK A01 T02700201  RH  066%=      5-min Rain = 0
KSE2 121414Z 17010KT 27/20 A3004 RMK A01 T02710199  RH  065%=      5-min Rain = 0
KSE2 121415Z 16011KT 27/20 A3004 RMK A01 T02710197  RH  064%=      5-min Rain = 0
KSE2 121416Z 18009KT 27/20 A3004 RMK A01 T02700197  RH  064%=      5-min Rain = 0
KSE2 121417Z 18008KT 27/20 A3004 RMK A01 T02710198  RH  064%=      5-min Rain = 0
KSE2 121418Z 17009KT 27/20 A3004 RMK A01 T02730199  RH  064%=      5-min Rain = 0
KSE2 121419Z 19007G12KT 27/20 A3004 RMK A01 T02730198  RH  063%=      5-min Rain = 0
KSE2 121420Z 18007G12KT 27/20 A3004 RMK A01 T02730199  RH  064%=      5-min Rain = 0
KSE2 121421Z 17009KT 27/20 A3004 RMK A01 T02740200  RH  064%=      5-min Rain = 0
KSE2 121422Z 17007KT 27/20 A3004 RMK A01 T02730200  RH  064%=      5-min Rain = 0
KSE2 121423Z 16006KT 27/20 A3004 RMK A01 T02740201  RH  064%=      5-min Rain = 0
KSE2 121424Z 15010KT 28/20 A3004 RMK A01 T02760201  RH  064%=      5-min Rain = 0
KSE2 121425Z 15008KT 28/20 A3004 RMK A01 T02760200  RH  063%=      5-min Rain = 0
KSE2 121426Z 15009KT 28/20 A3004 RMK A01 T02760200  RH  063%=      5-min Rain = 0
KSE2 121427Z 16010KT 28/20 A3004 RMK A01 T02770200  RH  063%=      5-min Rain = 0
KSE2 121428Z 15008KT 28/20 A3004 RMK A01 T02770200  RH  063%=      5-min Rain = 0
KSE2 121429Z 15010KT 28/20 A3004 RMK A01 T02760199  RH  063%=      5-min Rain = 0
KSE2 121430Z 15009G14KT 28/20 A3004 RMK A01 T02760199  RH  063%=      5-min Rain = 0
KSE2 121431Z 15010KT 28/20 A3004 RMK A01 T02760198  RH  063%=      5-min Rain = 0
KSE2 121432Z 16009KT 28/20 A3004 RMK A01 T02770200  RH  063%=      5-min Rain = 0
KSE2 121433Z 17009KT 28/20 A3004 RMK A01 T02770201  RH  063%=      5-min Rain = 0
KSE2 121434Z 15008KT 28/20 A3004 RMK A01 T02790201  RH  062%=      5-min Rain = 0
KSE2 121435Z 15010KT 28/20 A3004 RMK A01 T02790198  RH  061%=      5-min Rain = 0
KSE2 121436Z 15011KT 28/20 A3004 RMK A01 T02790198  RH  061%=      5-min Rain = 0
KSE2 121437Z 15009KT 28/20 A3004 RMK A01 T02780198  RH  062%=      5-min Rain = 0
KSE2 121438Z 15006G11KT 28/20 A3004 RMK A01 T02770198  RH  062%=      5-min Rain = 0
KSE2 121439Z 16006KT 28/20 A3004 RMK A01 T02800199  RH  062%=      5-min Rain = 0
KSE2 121440Z 14011KT 28/20 A3004 RMK A01 T02830199  RH  060%=      5-min Rain = 0
KSE2 121441Z 14011KT 28/20 A3004 RMK A01 T02820195  RH  059%=      5-min Rain = 0
KSE2 121442Z 15009KT 28/20 A3004 RMK A01 T02800196  RH  060%=      5-min Rain = 0
KSE2 121443Z 15011KT 28/20 A3004 RMK A01 T02810195  RH  060%=      5-min Rain = 0
KSE2 121444Z 14008KT 28/20 A3004 RMK A01 T02810197  RH  060%=      5-min Rain = 0
KSE2 121445Z 14010KT 28/20 A3004 RMK A01 T02820197  RH  060%=      5-min Rain = 0
KSE2 121446Z 15010G15KT 28/20 A3004 RMK A01 T02820197  RH  060%=      5-min Rain = 0
KSE2 121447Z 15011KT 28/20 A3004 RMK A01 T02820196  RH  059%=      5-min Rain = 0
KSE2 121448Z 14010KT 28/20 A3004 RMK A01 T02800197  RH  060%=      5-min Rain = 0
KSE2 121449Z 14010KT 28/20 A3004 RMK A01 T02810197  RH  060%=      5-min Rain = 0
KSE2 121450Z 14010KT 28/20 A3004 RMK A01 T02830198  RH  060%=      5-min Rain = 0
KSE2 121451Z 14013KT 28/20 A3004 RMK A01 T02820197  RH  060%=      5-min Rain = 0
KSE2 121452Z 15010KT 28/20 A3004 RMK A01 T02820197  RH  060%=      5-min Rain = 0
KSE2 121453Z 15011KT 28/20 A3004 RMK A01 T02820197  RH  060%=      5-min Rain = 0
KSE2 121454Z 15011KT 28/20 A3004 RMK A01 T02820196  RH  059%=      5-min Rain = 0
KSE2 121455Z 16009G15KT 28/19 A3004 RMK A01 T02820194  RH  059%=      5-min Rain = 0
KSE2 121456Z 17008KT 28/19 A3004 RMK A01 T02820192  RH  058%=      5-min Rain = 0
KSE2 121457Z 17011KT 28/20 A3004 RMK A01 T02840195  RH  058%=      5-min Rain = 0
KSE2 121458Z 15011KT 29/20 A3004 RMK A01 T02860195  RH  058%=      5-min Rain = 0
KSE2 121459Z 17010KT 29/19 A3004 RMK A01 T02860193  RH  057%=      5-min Rain = 0
KSE2 121500Z 18011KT 29/19 A3004 RMK A01 T02850193  RH  057%=      5-min Rain = 0
KSE2 121501Z 15008KT 29/19 A3004 RMK A01 T02870193  RH  057%=      5-min Rain = 0
KSE2 121502Z 16010KT 29/20 A3004 RMK A01 T02890195  RH  057%=      5-min Rain = 0
KSE2 121503Z 16011KT 29/19 A3004 RMK A01 T02900193  RH  056%=      5-min Rain = 0
KSE2 121504Z 17010KT 29/19 A3004 RMK A01 T02890192  RH  056%=      5-min Rain = 0
KSE2 121505Z 16009KT 29/19 A3004 RMK A01 T02870192  RH  056%=      5-min Rain = 0
KSE2 121506Z 14011KT 29/19 A3004 RMK A01 T02870193  RH  057%=      5-min Rain = 0
KSE2 121507Z 15011KT 29/19 A3004 RMK A01 T02880193  RH  057%=      5-min Rain = 0
KSE2 121508Z 16006G11KT 29/19 A3004 RMK A01 T02870194  RH  057%=      5-min Rain = 0
KSE2 121509Z 15012KT 29/19 A3004 RMK A01 T02900194  RH  056%=      5-min Rain = 0
KSE2 121510Z 15012KT 29/19 A3004 RMK A01 T02890193  RH  056%=      5-min Rain = 0
KSE2 121511Z 15012KT 29/19 A3004 RMK A01 T02870194  RH  057%=      5-min Rain = 0
KSE2 121512Z 15010KT 29/20 A3004 RMK A01 T02880195  RH  057%=      5-min Rain = 0
KSE2 121513Z 15010KT 29/20 A3004 RMK A01 T02890195  RH  057%=      5-min Rain = 0
KSE2 121514Z 15013KT 29/19 A3004 RMK A01 T02900194  RH  056%=      5-min Rain = 0
KSE2 121515Z 15010G15KT 29/19 A3004 RMK A01 T02890193  RH  056%=      5-min Rain = 0
KSE2 121516Z 14011KT 29/19 A3004 RMK A01 T02900194  RH  056%=      5-min Rain = 0
KSE2 121517Z 14012KT 29/19 A3004 RMK A01 T02910192  RH  055%=      5-min Rain = 0
KSE2 121518Z 15010KT 29/19 A3004 RMK A01 T02900193  RH  056%=      5-min Rain = 0
KSE2 121519Z 16012KT 29/19 A3004 RMK A01 T02930193  RH  055%=      5-min Rain = 0
KSE2 121520Z 16009KT 29/19 A3004 RMK A01 T02920192  RH  055%=      5-min Rain = 0
KSE2 121521Z 17012KT 29/19 A3004 RMK A01 T02930193  RH  055%=      5-min Rain = 0
KSE2 121522Z 16013KT 29/19 A3004 RMK A01 T02920191  RH  055%=      5-min Rain = 0
KSE2 121523Z 16011KT 29/19 A3004 RMK A01 T02900191  RH  055%=      5-min Rain = 0
KSE2 121524Z 16010KT 29/19 A3004 RMK A01 T02920192  RH  055%=      5-min Rain = 0
KSE2 121525Z 18011KT 29/19 A3004 RMK A01 T02930192  RH  055%=      5-min Rain = 0
KSE2 121526Z 19009KT 29/19 A3004 RMK A01 T02920194  RH  055%=      5-min Rain = 0
KSE2 121527Z 16007KT 29/19 A3004 RMK A01 T02930194  RH  055%=      5-min Rain = 0
KSE2 121528Z 15009G15KT 30/19 A3004 RMK A01 T02950194  RH  055%=      5-min Rain = 0
KSE2 121529Z 16011KT 30/19 A3004 RMK A01 T02960191  RH  053%=      5-min Rain = 0
KSE2 121530Z 16008KT 30/19 A3004 RMK A01 T02960190  RH  053%=      5-min Rain = 0
KSE2 121531Z 17012KT 30/19 A3004 RMK A01 T02960190  RH  053%=      5-min Rain = 0
KSE2 121532Z 18012KT 30/19 A3004 RMK A01 T02970192  RH  053%=      5-min Rain = 0
KSE2 121533Z 18010KT 30/19 A3004 RMK A01 T02960190  RH  053%=      5-min Rain = 0
KSE2 121534Z 18011KT 30/19 A3004 RMK A01 T02950191  RH  054%=      5-min Rain = 0
KSE2 121535Z 18012KT 30/19 A3004 RMK A01 T02960191  RH  053%=      5-min Rain = 0
KSE2 121536Z 17008KT 30/19 A3004 RMK A01 T02960191  RH  053%=      5-min Rain = 0
KSE2 121537Z 17011KT 30/19 A3004 RMK A01 T02970189  RH  053%=      5-min Rain = 0
KSE2 121538Z 18010KT 30/19 A3004 RMK A01 T02970188  RH  052%=      5-min Rain = 0
KSE2 121539Z 18009KT 30/19 A3004 RMK A01 T02970189  RH  052%=      5-min Rain = 0
KSE2 121540Z 19012KT 30/19 A3004 RMK A01 T02980189  RH  052%=      5-min Rain = 0
KSE2 121541Z 19010KT 30/19 A3004 RMK A01 T02970188  RH  052%=      5-min Rain = 0
KSE2 121542Z 20010KT 30/19 A3004 RMK A01 T02970189  RH  052%=      5-min Rain = 0
KSE2 121543Z 20008KT 30/19 A3004 RMK A01 T02960189  RH  052%=      5-min Rain = 0
KSE2 121544Z 20008KT 30/19 A3004 RMK A01 T02980189  RH  052%=      5-min Rain = 0
KSE2 121545Z 18010KT 30/19 A3004 RMK A01 T03000192  RH  052%=      5-min Rain = 0
KSE2 121546Z 18012KT 30/19 A3004 RMK A01 T03030192  RH  052%=      5-min Rain = 0
KSE2 121547Z 17010KT 30/19 A3004 RMK A01 T03020191  RH  052%=      5-min Rain = 0
KSE2 121548Z 16011KT 30/19 A3004 RMK A01 T03010194  RH  053%=      5-min Rain = 0
KSE2 121549Z 16008KT 30/19 A3004 RMK A01 T03010194  RH  053%=      5-min Rain = 0
KSE2 121550Z 14009KT 30/19 A3004 RMK A01 T03020194  RH  052%=      5-min Rain = 0
KSE2 121551Z 14011KT 30/19 A3004 RMK A01 T03020191  RH  051%=      5-min Rain = 0
KSE2 121552Z 15008KT 30/19 A3004 RMK A01 T03000191  RH  052%=      5-min Rain = 0
KSE2 121553Z 15008KT 30/19 A3004 RMK A01 T03020193  RH  052%=      5-min Rain = 0
KSE2 121554Z 16010KT 31/20 A3004 RMK A01 T03060195  RH  052%=      5-min Rain = 0
KSE2 121555Z 15008G13KT 31/19 A3004 RMK A01 T03060193  RH  051%=      5-min Rain = 0
KSE2 121556Z 14011KT 31/19 A3004 RMK A01 T03050191  RH  050%=      5-min Rain = 0
KSE2 121557Z 15011KT 31/19 A3004 RMK A01 T03050190  RH  050%=      5-min Rain = 0
KSE2 121558Z 16008KT 31/19 A3004 RMK A01 T03050190  RH  050%=      5-min Rain = 0
KSE2 121559Z 16010KT 31/19 A3004 RMK A01 T03070191  RH  050%=      5-min Rain = 0
KSE2 121600Z 17009KT 31/19 A3004 RMK A01 T03090191  RH  049%=      5-min Rain = 0
KSE2 121601Z 18007KT 31/19 A3004 RMK A01 T03090191  RH  050%=      5-min Rain = 0
KSE2 121602Z 18007G14KT 31/19 A3004 RMK A01 T03080191  RH  050%=      5-min Rain = 0
KSE2 121603Z 20008G13KT 31/19 A3004 RMK A01 T03080191  RH  049%=      5-min Rain = 0
KSE2 121604Z 21011KT 31/19 A3004 RMK A01 T03080190  RH  049%=      5-min Rain = 0
KSE2 121605Z 20008KT 31/19 A3004 RMK A01 T03060192  RH  051%=      5-min Rain = 0
KSE2 121606Z 20009KT 31/19 A3004 RMK A01 T03050194  RH  052%=      5-min Rain = 0
KSE2 121607Z 19010KT 30/19 A3004 RMK A01 T03040192  RH  051%=      5-min Rain = 0
KSE2 121608Z 16008KT 31/19 A3004 RMK A01 T03050194  RH  052%=      5-min Rain = 0
KSE2 121609Z 17007KT 31/19 A3004 RMK A01 T03080193  RH  050%=      5-min Rain = 0
KSE2 121610Z 17010KT 31/19 A3004 RMK A01 T03110191  RH  049%=      5-min Rain = 0
KSE2 121611Z 18010KT 31/19 A3004 RMK A01 T03110191  RH  049%=      5-min Rain = 0
KSE2 121612Z 17008KT 31/19 A3004 RMK A01 T03110191  RH  049%=      5-min Rain = 0
KSE2 121613Z 18008KT 31/19 A3004 RMK A01 T03090191  RH  049%=      5-min Rain = 0
KSE2 121614Z 20009KT 31/19 A3004 RMK A01 T03080190  RH  049%=      5-min Rain = 0
KSE2 121615Z 19008KT 31/19 A3004 RMK A01 T03090190  RH  049%=      5-min Rain = 0
KSE2 121616Z 18010KT 31/19 A3004 RMK A01 T03100193  RH  050%=      5-min Rain = 0
KSE2 121617Z 19011KT 31/19 A3004 RMK A01 T03100191  RH  049%=      5-min Rain = 0
KSE2 121618Z 18007KT 31/19 A3004 RMK A01 T03090192  RH  050%=      5-min Rain = 0
KSE2 121619Z 18011KT 31/19 A3004 RMK A01 T03090192  RH  050%=      5-min Rain = 0
KSE2 121620Z 19010KT 31/19 A3004 RMK A01 T03080192  RH  050%=      5-min Rain = 0
KSE2 121621Z 17008KT 31/19 A3004 RMK A01 T03070193  RH  051%=      5-min Rain = 0
KSE2 121622Z 18008KT 31/20 A3004 RMK A01 T03100195  RH  050%=      5-min Rain = 0
KSE2 121623Z 15009KT 31/19 A3004 RMK A01 T03140194  RH  049%=      5-min Rain = 0
KSE2 121624Z 17008KT 32/19 A3004 RMK A01 T03150191  RH  048%=      5-min Rain = 0
KSE2 121625Z 17011KT 32/19 A3004 RMK A01 T03160192  RH  048%=      5-min Rain = 0
KSE2 121626Z 14009KT 32/19 A3004 RMK A01 T03150192  RH  048%=      5-min Rain = 0
KSE2 121627Z 15007KT 31/19 A3004 RMK A01 T03140191  RH  048%=      5-min Rain = 0
KSE2 121628Z 19008KT 32/19 A3004 RMK A01 T03150191  RH  048%=      5-min Rain = 0
KSE2 121629Z 19009KT 32/19 A3004 RMK A01 T03160190  RH  047%=      5-min Rain = 0
KSE2 121630Z 20008KT 32/19 A3004 RMK A01 T03150191  RH  048%=      5-min Rain = 0
KSE2 121631Z 18009KT 32/19 A3004 RMK A01 T03170191  RH  047%=      5-min Rain = 0
KSE2 121632Z 18009KT 32/19 A3004 RMK A01 T03180191  RH  047%=      5-min Rain = 0
KSE2 121633Z 17008KT 32/19 A3004 RMK A01 T03170191  RH  047%=      5-min Rain = 0
KSE2 121634Z 16007KT 32/19 A3004 RMK A01 T03190189  RH  046%=      5-min Rain = 0
KSE2 121635Z 17007KT 32/19 A3004 RMK A01 T03210189  RH  046%=      5-min Rain = 0
KSE2 121636Z 19012KT 32/19 A3004 RMK A01 T03230189  RH  045%=      5-min Rain = 0
KSE2 121637Z 19011KT 32/18 A3004 RMK A01 T03210184  RH  044%=      5-min Rain = 0
KSE2 121638Z 16012KT 32/18 A3004 RMK A01 T03200184  RH  045%=      5-min Rain = 0
KSE2 121639Z 16011KT 32/18 A3004 RMK A01 T03180182  RH  044%=      5-min Rain = 0
KSE2 121640Z 17012KT 32/18 A3004 RMK A01 T03170183  RH  045%=      5-min Rain = 0
KSE2 121641Z 16009KT 32/18 A3004 RMK A01 T03160184  RH  045%=      5-min Rain = 0
KSE2 121642Z 17008KT 32/18 A3004 RMK A01 T03160184  RH  045%=      5-min Rain = 0
KSE2 121643Z 17007KT 32/18 A3004 RMK A01 T03190184  RH  045%=      5-min Rain = 0
KSE2 121644Z 20008KT 32/18 A3004 RMK A01 T03200183  RH  044%=      5-min Rain = 0
KSE2 121645Z 19006KT 32/18 A3004 RMK A01 T03200183  RH  044%=      5-min Rain = 0
KSE2 121646Z 17005KT 32/19 A3004 RMK A01 T03200186  RH  045%=      5-min Rain = 0
KSE2 121647Z 19009KT 32/19 A3004 RMK A01 T03230189  RH  045%=      5-min Rain = 0
KSE2 121648Z 19007KT 32/19 A3004 RMK A01 T03240188  RH  045%=      5-min Rain = 0
KSE2 121649Z 14008KT 32/19 A3004 RMK A01 T03220186  RH  044%=      5-min Rain = 0
KSE2 121650Z 18011G16KT 32/19 A3004 RMK A01 T03240186  RH  044%=      5-min Rain = 0
KSE2 121651Z 18012KT 32/19 A3004 RMK A01 T03240185  RH  044%=      5-min Rain = 0
KSE2 121652Z 19007KT 32/18 A3004 RMK A01 T03210183  RH  044%=      5-min Rain = 0
KSE2 121653Z 19008KT 32/18 A3004 RMK A01 T03200184  RH  044%=      5-min Rain = 0
KSE2 121654Z 19006KT 32/19 A3004 RMK A01 T03190185  RH  045%=      5-min Rain = 0
KSE2 121655Z 20007KT 32/18 A3004 RMK A01 T03190182  RH  044%=      5-min Rain = 0
KSE2 121656Z 18006KT 32/19 A3004 RMK A01 T03210185  RH  045%=      5-min Rain = 0
KSE2 121657Z 18008G14KT 33/19 A3004 RMK A01 T03270188  RH  044%=      5-min Rain = 0
KSE2 121658Z 16011KT 33/19 A3004 RMK A01 T03290186  RH  043%=      5-min Rain = 0
KSE2 121659Z 16011KT 33/18 A3004 RMK A01 T03280182  RH  042%=      5-min Rain = 0
KSE2 121700Z 17008KT 33/18 A3004 RMK A01 T03270182  RH  042%=      5-min Rain = 0
KSE2 121701Z 18008KT 33/18 A3004 RMK A01 T03270182  RH  042%=      5-min Rain = 0
KSE2 121702Z 18008KT 33/18 A3004 RMK A01 T03290183  RH  042%=      5-min Rain = 0
KSE2 121703Z 17009G14KT 33/18 A3004 RMK A01 T03280183  RH  042%=      5-min Rain = 0
KSE2 121704Z 15011KT 33/18 A3004 RMK A01 T03310181  RH  041%=      5-min Rain = 0
KSE2 121705Z 15010KT 33/18 A3004 RMK A01 T03320180  RH  041%=      5-min Rain = 0
KSE2 121706Z 15012KT 33/18 A3004 RMK A01 T03320176  RH  039%=      5-min Rain = 0
KSE2 121707Z 15011KT 33/18 A3003 RMK A01 T03280175  RH  040%=      5-min Rain = 0
KSE2 121708Z 15012KT 33/18 A3004 RMK A01 T03280177  RH  040%=      5-min Rain = 0
KSE2 121709Z 13011KT 33/18 A3004 RMK A01 T03310175  RH  040%=      5-min Rain = 0
KSE2 121710Z 15013KT 33/18 A3003 RMK A01 T03280176  RH  040%=      5-min Rain = 0
KSE2 121711Z 16011KT 33/18 A3004 RMK A01 T03270178  RH  041%=      5-min Rain = 0
KSE2 121712Z 15010KT 33/18 A3004 RMK A01 T03280179  RH  041%=      5-min Rain = 0
KSE2 121713Z 15010KT 33/18 A3004 RMK A01 T03290179  RH  041%=      5-min Rain = 0
KSE2 121714Z 16010KT 33/18 A3004 RMK A01 T03290180  RH  041%=      5-min Rain = 0
KSE2 121715Z 14008KT 33/18 A3003 RMK A01 T03290181  RH  042%=      5-min Rain = 0
KSE2 121716Z 15008KT 33/18 A3003 RMK A01 T03290178  RH  041%=      5-min Rain = 0
KSE2 121717Z 14009KT 33/18 A3003 RMK A01 T03280178  RH  041%=      5-min Rain = 0
KSE2 121718Z 16006G12KT 33/18 A3003 RMK A01 T03310181  RH  041%=      5-min Rain = 0
KSE2 121719Z 16007KT 34/18 A3003 RMK A01 T03360182  RH  040%=      5-min Rain = 0
KSE2 121720Z 14012KT 34/18 A3003 RMK A01 T03380180  RH  039%=      5-min Rain = 0
KSE2 121721Z 13013KT 34/18 A3003 RMK A01 T03350178  RH  039%=      5-min Rain = 0
KSE2 121722Z 12011KT 33/18 A3003 RMK A01 T03320176  RH  040%=      5-min Rain = 0
KSE2 121723Z 12010KT 33/18 A3003 RMK A01 T03310178  RH  040%=      5-min Rain = 0
KSE2 121724Z 18010KT 34/18 A3003 RMK A01 T03350181  RH  040%=      5-min Rain = 0
KSE2 121725Z 18008KT 34/18 A3003 RMK A01 T03370181  RH  040%=      5-min Rain = 0
KSE2 121726Z 17010KT 34/18 A3003 RMK A01 T03390182  RH  039%=      5-min Rain = 0
KSE2 121727Z 18006KT 34/18 A3003 RMK A01 T03370180  RH  039%=      5-min Rain = 0
KSE2 121728Z 20008KT 34/18 A3003 RMK A01 T03380182  RH  039%=      5-min Rain = 0
KSE2 121729Z 20009KT 34/18 A3003 RMK A01 T03400181  RH  039%=      5-min Rain = 0
KSE2 121730Z 20009KT 34/18 A3003 RMK A01 T03380179  RH  039%=      5-min Rain = 0
KSE2 121731Z 20006KT 33/18 A3003 RMK A01 T03340176  RH  039%=      5-min Rain = 0
KSE2 121732Z 20007KT 33/18 A3003 RMK A01 T03340180  RH  040%=      5-min Rain = 0
KSE2 121733Z 17005KT 34/18 A3003 RMK A01 T03380182  RH  039%=      5-min Rain = 0
KSE2 121734Z 15004KT 34/18 A3003 RMK A01 T03400182  RH  039%=      5-min Rain = 0
KSE2 121735Z 15008KT 34/18 A3003 RMK A01 T03420184  RH  039%=      5-min Rain = 0
KSE2 121736Z 18010KT 34/18 A3003 RMK A01 T03440183  RH  039%=      5-min Rain = 0
KSE2 121737Z 17009KT 34/18 A3003 RMK A01 T03400178  RH  038%=      5-min Rain = 0
KSE2 121738Z 17010KT 34/18 A3003 RMK A01 T03380180  RH  039%=      5-min Rain = 0
KSE2 121739Z 16010G16KT 34/18 A3003 RMK A01 T03400180  RH  039%=      5-min Rain = 0
KSE2 121740Z 15012KT 34/18 A3003 RMK A01 T03410176  RH  038%=      5-min Rain = 0
KSE2 121741Z 18008KT 34/18 A3003 RMK A01 T03380176  RH  038%=      5-min Rain = 0
KSE2 121742Z 16006KT 34/18 A3003 RMK A01 T03380177  RH  038%=      5-min Rain = 0
KSE2 121743Z 18010KT 34/18 A3003 RMK A01 T03410177  RH  038%=      5-min Rain = 0
KSE2 121744Z 19009KT 34/17 A3003 RMK A01 T03410174  RH  037%=      5-min Rain = 0
KSE2 121745Z 17006KT 34/17 A3003 RMK A01 T03370174  RH  038%=      5-min Rain = 0
KSE2 121746Z 20006KT 34/18 A3003 RMK A01 T03360175  RH  038%=      5-min Rain = 0
KSE2 121747Z 19011KT 34/18 A3003 RMK A01 T03380176  RH  038%=      5-min Rain = 0
KSE2 121748Z 17009KT 34/18 A3003 RMK A01 T03390179  RH  039%=      5-min Rain = 0
KSE2 121749Z 16008KT 34/18 A3003 RMK A01 T03400179  RH  039%=      5-min Rain = 0
KSE2 121750Z 19005KT 34/18 A3003 RMK A01 T03400179  RH  039%=      5-min Rain = 0
KSE2 121751Z 19005KT 34/18 A3003 RMK A01 T03420179  RH  038%=      5-min Rain = 0
KSE2 121752Z 21010KT 34/18 A3003 RMK A01 T03440180  RH  038%=      5-min Rain = 0
KSE2 121753Z 22009KT 35/17 A3003 RMK A01 T03450174  RH  036%=      5-min Rain = 0
KSE2 121754Z 20008KT 34/17 A3003 RMK A01 T03410173  RH  037%=      5-min Rain = 0
KSE2 121755Z 21010KT 34/17 A3003 RMK A01 T03390174  RH  038%=      5-min Rain = 0
KSE2 121756Z 20009KT 34/17 A3002 RMK A01 T03400173  RH  037%=      5-min Rain = 0
KSE2 121757Z 21008KT 34/17 A3002 RMK A01 T03390174  RH  038%=      5-min Rain = 0
KSE2 121758Z 19005KT 34/18 A3002 RMK A01 T03400176  RH  038%=      5-min Rain = 0
KSE2 121759Z 19006KT 34/18 A3002 RMK A01 T03400177  RH  038%=      5-min Rain = 0
KSE2 121800Z 16008KT 34/18 A3002 RMK A01 T03400177  RH  038%=      5-min Rain = 0
KSE2 121801Z 13008KT 34/18 A3002 RMK A01 T03400175  RH  037%=      5-min Rain = 0
KSE2 121802Z 13009KT 34/18 A3002 RMK A01 T03410176  RH  038%=      5-min Rain = 0
KSE2 121803Z 15009G14KT 35/18 A3002 RMK A01 T03470179  RH  037%=      5-min Rain = 0
KSE2 121804Z 15008KT 35/18 A3002 RMK A01 T03480175  RH  036%=      5-min Rain = 0
KSE2 121805Z 13008KT 34/17 A3002 RMK A01 T03440174  RH  036%=      5-min Rain = 0
KSE2 121806Z 15008KT 35/18 A3002 RMK A01 T03460175  RH  036%=      5-min Rain = 0
KSE2 121807Z 14007G12KT 35/17 A3002 RMK A01 T03450173  RH  036%=      5-min Rain = 0
KSE2 121808Z 16008KT 35/17 A3002 RMK A01 T03450173  RH  036%=      5-min Rain = 0
KSE2 121809Z 16008KT 35/17 A3002 RMK A01 T03460174  RH  036%=      5-min Rain = 0
KSE2 121810Z 14008KT 35/17 A3002 RMK A01 T03470172  RH  035%=      5-min Rain = 0
KSE2 121811Z 16007KT 35/17 A3002 RMK A01 T03450171  RH  036%=      5-min Rain = 0
KSE2 121812Z 16010KT 35/17 A3002 RMK A01 T03480174  RH  036%=      5-min Rain = 0
KSE2 121813Z 16010G15KT 35/17 A3002 RMK A01 T03500174  RH  035%=      5-min Rain = 0
KSE2 121814Z 17012KT 35/17 A3002 RMK A01 T03500172  RH  035%=      5-min Rain = 0
KSE2 121815Z 15010KT 35/17 A3002 RMK A01 T03460171  RH  035%=      5-min Rain = 0
KSE2 121816Z 14008KT 35/17 A3002 RMK A01 T03450170  RH  035%=      5-min Rain = 0
KSE2 121817Z 14010KT 35/17 A3002 RMK A01 T03460173  RH  036%=      5-min Rain = 0
KSE2 121818Z 15009KT 35/17 A3002 RMK A01 T03450170  RH  035%=      5-min Rain = 0
KSE2 121819Z 15009KT 34/17 A3002 RMK A01 T03440169  RH  035%=      5-min Rain = 0
KSE2 121820Z 18008KT 34/17 A3002 RMK A01 T03430170  RH  036%=      5-min Rain = 0
KSE2 121821Z 21003KT 35/17 A3002 RMK A01 T03450170  RH  035%=      5-min Rain = 0
KSE2 121822Z 14003G8KT 35/17 A3002 RMK A01 T03450170  RH  035%=      5-min Rain = 0
KSE2 121823Z 12011KT 35/17 A3002 RMK A01 T03450168  RH  035%=      5-min Rain = 0
KSE2 121824Z 12010KT 35/17 A3002 RMK A01 T03470166  RH  034%=      5-min Rain = 0
KSE2 121825Z 13007KT 34/16 A3002 RMK A01 T03430164  RH  034%=      5-min Rain = 0
KSE2 121826Z 12009KT 34/17 A3002 RMK A01 T03430166  RH  035%=      5-min Rain = 0
KSE2 121827Z 13007KT 35/17 A3002 RMK A01 T03450165  RH  034%=      5-min Rain = 0
KSE2 121828Z 17005KT 34/17 A3001 RMK A01 T03440165  RH  034%=      5-min Rain = 0
KSE2 121829Z 18004KT 34/17 A3001 RMK A01 T03440165  RH  034%=      5-min Rain = 0
KSE2 121830Z 20006KT 34/17 A3001 RMK A01 T03440169  RH  035%=      5-min Rain = 0
KSE2 121831Z 23006KT 34/17 A3001 RMK A01 T03430173  RH  036%=      5-min Rain = 0
KSE2 121832Z 21008KT 35/17 A3001 RMK A01 T03460174  RH  036%=      5-min Rain = 0
KSE2 121833Z 23004KT 35/17 A3002 RMK A01 T03460170  RH  035%=      5-min Rain = 0
KSE2 121834Z 18004KT 34/17 A3001 RMK A01 T03430170  RH  036%=      5-min Rain = 0
KSE2 121835Z 20009KT 35/17 A3001 RMK A01 T03450171  RH  036%=      5-min Rain = 0
KSE2 121836Z 22008KT 35/17 A3001 RMK A01 T03490173  RH  035%=      5-min Rain = 0
KSE2 121837Z 22006KT 36/17 A3001 RMK A01 T03550172  RH  034%=      5-min Rain = 0
KSE2 121838Z 22009G17KT 35/17 A3001 RMK A01 T03540172  RH  034%=      5-min Rain = 0
KSE2 121839Z 15010G19KT 36/17 A3001 RMK A01 T03570170  RH  033%=      5-min Rain = 0
KSE2 121840Z 14007KT 36/17 A3001 RMK A01 T03570169  RH  033%=      5-min Rain = 0
KSE2 121841Z 13007KT 36/17 A3001 RMK A01 T03580169  RH  033%=      5-min Rain = 0
KSE2 121842Z 19005KT 36/17 A3001 RMK A01 T03590167  RH  032%=      5-min Rain = 0
KSE2 121843Z 20006KT 36/17 A3001 RMK A01 T03580166  RH  032%=      5-min Rain = 0
KSE2 121844Z 20005KT 36/16 A3001 RMK A01 T03570164  RH  032%=      5-min Rain = 0
KSE2 121845Z 16007KT 36/17 A3001 RMK A01 T03560165  RH  032%=      5-min Rain = 0
KSE2 121846Z 18009G14KT 36/16 A3001 RMK A01 T03570163  RH  032%=      5-min Rain = 0
KSE2 121847Z 17011KT 36/16 A3001 RMK A01 T03560164  RH  032%=      5-min Rain = 0
KSE2 121848Z 17009KT 36/16 A3001 RMK A01 T03560163  RH  032%=      5-min Rain = 0
KSE2 121849Z 16012KT 36/16 A3001 RMK A01 T03560161  RH  032%=      5-min Rain = 0
KSE2 121850Z 13008KT 35/16 A30 RMK A01 T03520160  RH  032%=      5-min Rain = 0
KSE2 121851Z 14005KT 35/16 A30 RMK A01 T03540163  RH  032%=      5-min Rain = 0
KSE2 121852Z 13006KT 36/16 A30 RMK A01 T03600164  RH  031%=      5-min Rain = 0
KSE2 121853Z 11004KT 36/16 A30 RMK A01 T03560160  RH  031%=      5-min Rain = 0
KSE2 121854Z 14002KT 35/16 A30 RMK A01 T03530162  RH  032%=      5-min Rain = 0
KSE2 121855Z 19004KT 36/17 A30 RMK A01 T03570165  RH  032%=      5-min Rain = 0
KSE2 121856Z 22008G15KT 36/16 A30 RMK A01 T03610162  RH  031%=      5-min Rain = 0
KSE2 121857Z 19007KT 36/16 A30 RMK A01 T03610162  RH  031%=      5-min Rain = 0
KSE2 121858Z 17006KT 36/16 A30 RMK A01 T03620162  RH  031%=      5-min Rain = 0
KSE2 121859Z 18006KT 36/16 A30 RMK A01 T03620159  RH  030%=      5-min Rain = 0
KSE2 121900Z 20004KT 36/16 A30 RMK A01 T03590159  RH  030%=      5-min Rain = 0
KSE2 121901Z 15002KT 36/16 A30 RMK A01 T03570161  RH  031%=      5-min Rain = 0
KSE2 121902Z 19002KT 36/16 A30 RMK A01 T03580161  RH  031%=      5-min Rain = 0
KSE2 121903Z 15009G15KT 36/16 A30 RMK A01 T03590160  RH  031%=      5-min Rain = 0
KSE2 121904Z 15012KT 36/16 A30 RMK A01 T03590158  RH  030%=      5-min Rain = 0
KSE2 121905Z 14010KT 36/16 A30 RMK A01 T03550155  RH  030%=      5-min Rain = 0
KSE2 121906Z 14010KT 35/15 A30 RMK A01 T03520154  RH  031%=      5-min Rain = 0
KSE2 121907Z 15009KT 35/15 A30 RMK A01 T03520154  RH  031%=      5-min Rain = 0
KSE2 121908Z 14007KT 35/16 A30 RMK A01 T03530155  RH  031%=      5-min Rain = 0
KSE2 121909Z 13007G14KT 35/15 A30 RMK A01 T03540153  RH  030%=      5-min Rain = 0
KSE2 121910Z 14010KT 35/15 A2999 RMK A01 T03540154  RH  030%=      5-min Rain = 0
KSE2 121911Z 15009KT 35/15 A2999 RMK A01 T03540154  RH  030%=      5-min Rain = 0
KSE2 121912Z 14006KT 35/15 A2999 RMK A01 T03510151  RH  030%=      5-min Rain = 0
KSE2 121913Z 13007KT 35/15 A2999 RMK A01 T03520154  RH  031%=      5-min Rain = 0
KSE2 121914Z 13006KT 36/16 A2999 RMK A01 T03550156  RH  031%=      5-min Rain = 0
KSE2 121915Z 12008KT 36/16 A2999 RMK A01 T03610159  RH  030%=      5-min Rain = 0
KSE2 121916Z 12007KT 36/16 A2999 RMK A01 T03610158  RH  030%=      5-min Rain = 0
KSE2 121917Z 19009KT 36/16 A2999 RMK A01 T03620158  RH  030%=      5-min Rain = 0
KSE2 121918Z 19007KT 36/16 A2999 RMK A01 T03640155  RH  029%=      5-min Rain = 0
KSE2 121919Z 19008KT 36/16 A2999 RMK A01 T03640155  RH  029%=      5-min Rain = 0
KSE2 121920Z 21009KT 37/16 A2999 RMK A01 T03670155  RH  029%=      5-min Rain = 0
KSE2 121921Z 21006KT 37/16 A2999 RMK A01 T03680155  RH  028%=      5-min Rain = 0
KSE2 121922Z 21006KT 37/15 A2999 RMK A01 T03650152  RH  028%=      5-min Rain = 0
KSE2 121923Z 23006KT 36/15 A2999 RMK A01 T03600152  RH  029%=      5-min Rain = 0
KSE2 121924Z 23007KT 36/15 A2999 RMK A01 T03600149  RH  028%=      5-min Rain = 0
KSE2 121925Z 19008KT 36/15 A2999 RMK A01 T03640154  RH  029%=      5-min Rain = 0
KSE2 121926Z 19005KT 37/15 A2999 RMK A01 T03650154  RH  029%=      5-min Rain = 0
KSE2 121927Z 19005KT 36/15 A2999 RMK A01 T03630151  RH  029%=      5-min Rain = 0
KSE2 121928Z 20008KT 36/15 A2999 RMK A01 T03630150  RH  028%=      5-min Rain = 0
KSE2 121929Z 19013KT 36/15 A2999 RMK A01 T03640154  RH  029%=      5-min Rain = 0
KSE2 121930Z 19012KT 36/16 A2999 RMK A01 T03620156  RH  029%=      5-min Rain = 0
KSE2 121931Z 18008KT 36/16 A2999 RMK A01 T03620156  RH  030%=      5-min Rain = 0
KSE2 121932Z 19007KT 36/16 A2999 RMK A01 T03610155  RH  029%=      5-min Rain = 0
KSE2 121933Z 21006KT 36/15 A2999 RMK A01 T03600153  RH  029%=      5-min Rain = 0
KSE2 121934Z 20006KT 36/15 A2999 RMK A01 T03580152  RH  029%=      5-min Rain = 0
KSE2 121935Z 21007KT 36/15 A2999 RMK A01 T03600148  RH  028%=      5-min Rain = 0
KSE2 121936Z 22005KT 36/15 A2999 RMK A01 T03590147  RH  028%=      5-min Rain = 0
KSE2 121937Z 22004KT 36/15 A2999 RMK A01 T03590145  RH  028%=      5-min Rain = 0
KSE2 121938Z 20006KT 36/15 A2999 RMK A01 T03580147  RH  028%=      5-min Rain = 0
KSE2 121939Z 18009KT 36/15 A2999 RMK A01 T03640152  RH  029%=      5-min Rain = 0
KSE2 121940Z 17008KT 37/15 A2999 RMK A01 T03670152  RH  028%=      5-min Rain = 0
KSE2 121941Z 15007KT 37/15 A2999 RMK A01 T03660147  RH  027%=      5-min Rain = 0
KSE2 121942Z 16006G11KT 37/15 A2999 RMK A01 T03660148  RH  027%=      5-min Rain = 0
KSE2 121943Z 16008KT 37/15 A2999 RMK A01 T03660146  RH  027%=      5-min Rain = 0
KSE2 121944Z 18008KT 37/15 A2998 RMK A01 T03650148  RH  028%=      5-min Rain = 0
KSE2 121945Z 16006KT 37/15 A2998 RMK A01 T03650148  RH  028%=      5-min Rain = 0
KSE2 121946Z 18004KT 37/15 A2998 RMK A01 T03660149  RH  028%=      5-min Rain = 0
KSE2 121947Z 14005KT 37/15 A2998 RMK A01 T03670146  RH  027%=      5-min Rain = 0
KSE2 121948Z 16008KT 37/14 A2998 RMK A01 T03650143  RH  027%=      5-min Rain = 0
KSE2 121949Z 18004KT 37/14 A2998 RMK A01 T03650144  RH  027%=      5-min Rain = 0
KSE2 121950Z 19006KT 36/14 A2998 RMK A01 T03640142  RH  027%=      5-min Rain = 0
KSE2 121951Z 20004G9KT 37/14 A2998 RMK A01 T03650143  RH  027%=      5-min Rain = 0
KSE2 121952Z 22006G11KT 37/15 A2998 RMK A01 T03670145  RH  027%=      5-min Rain = 0
KSE2 121953Z 21003KT 36/14 A2998 RMK A01 T03640144  RH  027%=      5-min Rain = 0
KSE2 121954Z 20004KT 37/14 A2998 RMK A01 T03650143  RH  027%=      5-min Rain = 0
KSE2 121955Z 18004KT 37/15 A2998 RMK A01 T03710145  RH  026%=      5-min Rain = 0
KSE2 121956Z 16004KT 38/15 A2998 RMK A01 T03760146  RH  026%=      5-min Rain = 0
KSE2 121957Z 14008KT 38/15 A2998 RMK A01 T03780147  RH  026%=      5-min Rain = 0
KSE2 121958Z 15008KT 37/14 A2998 RMK A01 T03730144  RH  026%=      5-min Rain = 0
KSE2 121959Z 16007KT 37/14 A2997 RMK A01 T03670141  RH  026%=      5-min Rain = 0
KSE2 122000Z 18007KT 37/14 A2997 RMK A01 T03660143  RH  026%=      5-min Rain = 0
KSE2 122001Z 19005KT 36/14 A2997 RMK A01 T03640136  RH  026%=      5-min Rain = 0
KSE2 122002Z 20007KT 36/14 A2997 RMK A01 T03610137  RH  026%=      5-min Rain = 0
KSE2 122003Z 19006KT 36/14 A2997 RMK A01 T03630141  RH  027%=      5-min Rain = 0
KSE2 122004Z 18001KT 37/14 A2997 RMK A01 T03650141  RH  026%=      5-min Rain = 0
KSE2 122005Z 16002KT 37/14 A2997 RMK A01 T03660140  RH  026%=      5-min Rain = 0
KSE2 122006Z 15004KT 37/14 A2997 RMK A01 T03670141  RH  026%=      5-min Rain = 0
KSE2 122007Z 18008KT 37/14 A2997 RMK A01 T03710143  RH  026%=      5-min Rain = 0
KSE2 122008Z 19006KT 37/14 A2997 RMK A01 T03730141  RH  025%=      5-min Rain = 0
KSE2 122009Z 19006KT 38/14 A2997 RMK A01 T03750140  RH  025%=      5-min Rain = 0
KSE2 122010Z 18005KT 37/14 A2997 RMK A01 T03740141  RH  025%=      5-min Rain = 0
KSE2 122011Z 19006KT 38/14 A2997 RMK A01 T03750140  RH  025%=      5-min Rain = 0
KSE2 122012Z 17006KT 38/14 A2997 RMK A01 T03760140  RH  025%=      5-min Rain = 0
KSE2 122013Z 15009KT 37/14 A2997 RMK A01 T03730137  RH  025%=      5-min Rain = 0
KSE2 122014Z 14008KT 37/13 A2997 RMK A01 T03680134  RH  025%=      5-min Rain = 0
KSE2 122015Z 15006KT 37/13 A2996 RMK A01 T03650129  RH  024%=      5-min Rain = 0
KSE2 122016Z 15007KT 36/13 A2997 RMK A01 T03630132  RH  025%=      5-min Rain = 0
KSE2 122017Z 17007KT 37/14 A2997 RMK A01 T03670135  RH  025%=      5-min Rain = 0
KSE2 122018Z 19006KT 37/14 A2996 RMK A01 T03690136  RH  025%=      5-min Rain = 0
KSE2 122019Z 23006KT 37/13 A2996 RMK A01 T03720134  RH  024%=      5-min Rain = 0
KSE2 122020Z 22004KT 37/13 A2996 RMK A01 T03700131  RH  024%=      5-min Rain = 0
KSE2 122021Z 20006KT 37/14 A2996 RMK A01 T03700137  RH  025%=      5-min Rain = 0
KSE2 122022Z 19010KT 37/14 A2996 RMK A01 T03730140  RH  025%=      5-min Rain = 0
KSE2 122023Z 15007G13KT 38/14 A2996 RMK A01 T03750140  RH  025%=      5-min Rain = 0
KSE2 122024Z 13009KT 38/14 A2996 RMK A01 T03780140  RH  024%=      5-min Rain = 0
KSE2 122025Z 15008KT 38/14 A2996 RMK A01 T03790140  RH  024%=      5-min Rain = 0
KSE2 122026Z 14008KT 38/14 A2996 RMK A01 T03760142  RH  025%=      5-min Rain = 0
KSE2 122027Z 13008KT 37/14 A2996 RMK A01 T03740142  RH  025%=      5-min Rain = 0
KSE2 122028Z 12007KT 37/14 A2996 RMK A01 T03730140  RH  025%=      5-min Rain = 0
KSE2 122029Z 13006KT 37/14 A2996 RMK A01 T03710139  RH  025%=      5-min Rain = 0
KSE2 122030Z 11008G14KT 37/14 A2996 RMK A01 T03700139  RH  025%=      5-min Rain = 0
KSE2 122031Z 13007KT 37/14 A2996 RMK A01 T03680136  RH  025%=      5-min Rain = 0
KSE2 122032Z 15008KT 37/13 A2996 RMK A01 T03650134  RH  025%=      5-min Rain = 0
KSE2 122033Z 17013KT 37/14 A2996 RMK A01 T03650135  RH  025%=      5-min Rain = 0
KSE2 122034Z 18011KT 37/14 A2996 RMK A01 T03660137  RH  026%=      5-min Rain = 0
KSE2 122035Z 19009KT 37/14 A2996 RMK A01 T03680138  RH  026%=      5-min Rain = 0
KSE2 122036Z 16008KT 37/14 A2996 RMK A01 T03700138  RH  025%=      5-min Rain = 0
KSE2 122037Z 17006KT 37/14 A2996 RMK A01 T03700135  RH  025%=      5-min Rain = 0
KSE2 122038Z 21005KT 37/14 A2996 RMK A01 T03720137  RH  025%=      5-min Rain = 0
KSE2 122039Z 19005KT 37/14 A2996 RMK A01 T03720137  RH  025%=      5-min Rain = 0
KSE2 122040Z 17007KT 37/14 A2996 RMK A01 T03740137  RH  024%=      5-min Rain = 0
KSE2 122041Z 17007G13KT 37/13 A2996 RMK A01 T03740134  RH  024%=      5-min Rain = 0
KSE2 122042Z 16012KT 37/14 A2995 RMK A01 T03730135  RH  024%=      5-min Rain = 0
KSE2 122043Z 16010KT 37/13 A2995 RMK A01 T03710129  RH  024%=      5-min Rain = 0
KSE2 122044Z 16007KT 37/13 A2996 RMK A01 T03690129  RH  024%=      5-min Rain = 0
KSE2 122045Z 17007KT 37/13 A2995 RMK A01 T03700129  RH  024%=      5-min Rain = 0
KSE2 122046Z 19004KT 37/13 A2995 RMK A01 T03700125  RH  023%=      5-min Rain = 0
KSE2 122047Z 19005KT 37/13 A2995 RMK A01 T03700126  RH  023%=      5-min Rain = 0
KSE2 122048Z 21005KT 37/13 A2995 RMK A01 T03700125  RH  023%=      5-min Rain = 0
KSE2 122049Z 14004KT 37/13 A2995 RMK A01 T03690125  RH  023%=      5-min Rain = 0
KSE2 122050Z 13003KT 37/13 A2995 RMK A01 T03720129  RH  023%=      5-min Rain = 0
KSE2 122051Z 10005KT 38/13 A2995 RMK A01 T03760133  RH  023%=      5-min Rain = 0
KSE2 122052Z 15004KT 38/13 A2995 RMK A01 T03750134  RH  024%=      5-min Rain = 0
KSE2 122053Z 20006KT 38/14 A2995 RMK A01 T03750135  RH  024%=      5-min Rain = 0
KSE2 122054Z 19008KT 38/14 A2995 RMK A01 T03760137  RH  024%=      5-min Rain = 0
KSE2 122055Z 19007G12KT 38/14 A2995 RMK A01 T03780137  RH  024%=      5-min Rain = 0
KSE2 122056Z 19009KT 38/14 A2995 RMK A01 T03760135  RH  024%=      5-min Rain = 0
KSE2 122057Z 20005KT 37/14 A2995 RMK A01 T03710136  RH  025%=      5-min Rain = 0
KSE2 122058Z 19005KT 37/14 A2994 RMK A01 T03720136  RH  025%=      5-min Rain = 0
KSE2 122059Z 18005G12KT 37/14 A2994 RMK A01 T03710137  RH  025%=      5-min Rain = 0
KSE2 122100Z 17008KT 37/14 A2994 RMK A01 T03730138  RH  025%=      5-min Rain = 0
KSE2 122101Z 15009KT 38/14 A2994 RMK A01 T03770136  RH  024%=      5-min Rain = 0
KSE2 122102Z 15009KT 37/13 A2994 RMK A01 T03740132  RH  024%=      5-min Rain = 0
KSE2 122103Z 12011KT 37/13 A2994 RMK A01 T03720134  RH  024%=      5-min Rain = 0
KSE2 122104Z 12012G17KT 37/14 A2994 RMK A01 T03740137  RH  024%=      5-min Rain = 0
KSE2 122105Z 11007KT 38/13 A2994 RMK A01 T03750133  RH  024%=      5-min Rain = 0
KSE2 122106Z 13005KT 37/13 A2994 RMK A01 T03720132  RH  024%=      5-min Rain = 0
KSE2 122107Z 12006KT 37/13 A2994 RMK A01 T03700133  RH  024%=      5-min Rain = 0
KSE2 122108Z 11005KT 37/14 A2994 RMK A01 T03730135  RH  024%=      5-min Rain = 0
KSE2 122109Z 16008KT 38/13 A2994 RMK A01 T03770133  RH  023%=      5-min Rain = 0
KSE2 122110Z 12008KT 38/13 A2994 RMK A01 T03760131  RH  023%=      5-min Rain = 0
KSE2 122111Z 13010KT 38/14 A2994 RMK A01 T03770135  RH  024%=      5-min Rain = 0
KSE2 122112Z 12009KT 38/13 A2994 RMK A01 T03760134  RH  024%=      5-min Rain = 0
KSE2 122113Z 11007KT 37/13 A2994 RMK A01 T03730133  RH  024%=      5-min Rain = 0
KSE2 122114Z 11010KT 37/13 A2994 RMK A01 T03730134  RH  024%=      5-min Rain = 0
KSE2 122115Z 12004G9KT 37/14 A2994 RMK A01 T03730136  RH  024%=      5-min Rain = 0
KSE2 122116Z 17005KT 37/14 A2994 RMK A01 T03740139  RH  025%=      5-min Rain = 0
KSE2 122117Z 14004KT 38/14 A2994 RMK A01 T03770140  RH  024%=      5-min Rain = 0
KSE2 122118Z 16005KT 38/14 A2994 RMK A01 T03780138  RH  024%=      5-min Rain = 0
KSE2 122119Z 12001KT 37/14 A2994 RMK A01 T03730136  RH  024%=      5-min Rain = 0
KSE2 122120Z 10001KT 37/14 A2993 RMK A01 T03730137  RH  025%=      5-min Rain = 0
KSE2 122121Z 14006KT 38/14 A2993 RMK A01 T03760137  RH  024%=      5-min Rain = 0
KSE2 122122Z 12005KT 38/14 A2993 RMK A01 T03760138  RH  024%=      5-min Rain = 0
KSE2 122123Z 13007G13KT 38/14 A2993 RMK A01 T03750140  RH  025%=      5-min Rain = 0
KSE2 122124Z 12008KT 38/15 A2993 RMK A01 T03770145  RH  025%=      5-min Rain = 0
KSE2 122125Z 14007KT 38/14 A2993 RMK A01 T03760144  RH  025%=      5-min Rain = 0
KSE2 122126Z 12007KT 37/14 A2993 RMK A01 T03730144  RH  026%=      5-min Rain = 0
KSE2 122127Z 12009KT 37/14 A2993 RMK A01 T03730144  RH  026%=      5-min Rain = 0
KSE2 122128Z 12006KT 37/14 A2993 RMK A01 T03730142  RH  025%=      5-min Rain = 0
KSE2 122129Z 14007KT 37/14 A2993 RMK A01 T03710142  RH  026%=      5-min Rain = 0
KSE2 122130Z 17003KT 37/14 A2993 RMK A01 T03710144  RH  026%=      5-min Rain = 0
KSE2 122131Z 10004G9KT 37/15 A2993 RMK A01 T03720145  RH  026%=      5-min Rain = 0
KSE2 122132Z 10006KT 38/15 A2993 RMK A01 T03770146  RH  025%=      5-min Rain = 0
KSE2 122133Z 10006KT 38/14 A2993 RMK A01 T03780144  RH  025%=      5-min Rain = 0
KSE2 122134Z 14011KT 38/14 A2993 RMK A01 T03780144  RH  025%=      5-min Rain = 0
KSE2 122135Z 14008KT 38/14 A2993 RMK A01 T03750143  RH  025%=      5-min Rain = 0
KSE2 122136Z 14008KT 37/14 A2993 RMK A01 T03740143  RH  025%=      5-min Rain = 0
KSE2 122137Z 16007KT 38/14 A2993 RMK A01 T03750144  RH  025%=      5-min Rain = 0
KSE2 122138Z 16005KT 37/14 A2993 RMK A01 T03740143  RH  025%=      5-min Rain = 0
KSE2 122139Z 14007KT 37/14 A2993 RMK A01 T03730143  RH  026%=      5-min Rain = 0
KSE2 122140Z 12008KT 37/14 A2993 RMK A01 T03740142  RH  025%=      5-min Rain = 0
KSE2 122141Z 11010KT 38/14 A2993 RMK A01 T03760141  RH  025%=      5-min Rain = 0
KSE2 122142Z 14009KT 38/14 A2993 RMK A01 T03760141  RH  025%=      5-min Rain = 0
KSE2 122143Z 14011KT 38/14 A2993 RMK A01 T03770142  RH  025%=      5-min Rain = 0
KSE2 122144Z 15010KT 38/14 A2993 RMK A01 T03770139  RH  024%=      5-min Rain = 0
KSE2 122145Z 13011KT 38/14 A2993 RMK A01 T03760139  RH  025%=      5-min Rain = 0
KSE2 122146Z 11007KT 38/14 A2993 RMK A01 T03760137  RH  024%=      5-min Rain = 0
KSE2 122147Z 12010KT 38/14 A2993 RMK A01 T03750138  RH  025%=      5-min Rain = 0
KSE2 122148Z 13010KT 38/14 A2993 RMK A01 T03770140  RH  025%=      5-min Rain = 0
KSE2 122149Z 13007KT 38/14 A2993 RMK A01 T03780139  RH  024%=      5-min Rain = 0
KSE2 122150Z 13009KT 38/14 A2993 RMK A01 T03800140  RH  024%=      5-min Rain = 0
KSE2 122151Z 13011KT 38/14 A2993 RMK A01 T03780137  RH  024%=      5-min Rain = 0
KSE2 122152Z 13011KT 37/14 A2993 RMK A01 T03740136  RH  024%=      5-min Rain = 0
KSE2 122153Z 13008KT 37/14 A2993 RMK A01 T03740137  RH  024%=      5-min Rain = 0
KSE2 122154Z 13006KT 38/14 A2993 RMK A01 T03760136  RH  024%=      5-min Rain = 0
KSE2 122155Z 12010KT 38/14 A2993 RMK A01 T03760137  RH  024%=      5-min Rain = 0
KSE2 122156Z 13012KT 38/14 A2992 RMK A01 T03750141  RH  025%=      5-min Rain = 0
KSE2 122157Z 15007KT 37/14 A2993 RMK A01 T03740142  RH  025%=      5-min Rain = 0
KSE2 122158Z 17006KT 38/14 A2992 RMK A01 T03760143  RH  025%=      5-min Rain = 0
KSE2 122159Z 14010KT 38/14 A2992 RMK A01 T03790144  RH  025%=      5-min Rain = 0
KSE2 122200Z 14012KT 38/14 A2992 RMK A01 T03800143  RH  024%=      5-min Rain = 0
KSE2 122201Z 13011KT 38/14 A2992 RMK A01 T03770141  RH  025%=      5-min Rain = 0
KSE2 122202Z 13011KT 38/14 A2992 RMK A01 T03770141  RH  025%=      5-min Rain = 0
KSE2 122203Z 13012G17KT 38/14 A2992 RMK A01 T03770142  RH  025%=      5-min Rain = 0
KSE2 122204Z 13011KT 38/14 A2992 RMK A01 T03770140  RH  024%=      5-min Rain = 0
KSE2 122205Z 14009KT 38/14 A2992 RMK A01 T03750140  RH  025%=      5-min Rain = 0
KSE2 122206Z 12006KT 37/14 A2992 RMK A01 T03740140  RH  025%=      5-min Rain = 0
KSE2 122207Z 13009KT 37/14 A2992 RMK A01 T03730141  RH  025%=      5-min Rain = 0
KSE2 122208Z 12008KT 37/14 A2992 RMK A01 T03730142  RH  025%=      5-min Rain = 0
KSE2 122209Z 14008KT 37/14 A2992 RMK A01 T03740144  RH  026%=      5-min Rain = 0
KSE2 122210Z 14008KT 38/15 A2992 RMK A01 T03770145  RH  025%=      5-min Rain = 0
KSE2 122211Z 12010KT 38/14 A2992 RMK A01 T03770144  RH  025%=      5-min Rain = 0
KSE2 122212Z 11009KT 38/14 A2992 RMK A01 T03770144  RH  025%=      5-min Rain = 0
KSE2 122213Z 12012KT 38/15 A2992 RMK A01 T03790145  RH  025%=      5-min Rain = 0
KSE2 122214Z 12010KT 38/14 A2992 RMK A01 T03750143  RH  025%=      5-min Rain = 0
KSE2 122215Z 13009KT 37/14 A2992 RMK A01 T03740144  RH  026%=      5-min Rain = 0
KSE2 122216Z 13009KT 38/15 A2992 RMK A01 T03770145  RH  025%=      5-min Rain = 0
KSE2 122217Z 13009KT 38/15 A2992 RMK A01 T03760145  RH  025%=      5-min Rain = 0
KSE2 122218Z 12008KT 37/14 A2992 RMK A01 T03740144  RH  026%=      5-min Rain = 0
KSE2 122219Z 13007KT 37/15 A2992 RMK A01 T03730145  RH  026%=      5-min Rain = 0
KSE2 122220Z 16007KT 37/15 A2992 RMK A01 T03740145  RH  026%=      5-min Rain = 0
KSE2 122221Z 14007KT 37/15 A2992 RMK A01 T03740147  RH  026%=      5-min Rain = 0
KSE2 122222Z 12009KT 38/15 A2992 RMK A01 T03750148  RH  026%=      5-min Rain = 0
KSE2 122223Z 11010KT 38/15 A2992 RMK A01 T03750148  RH  026%=      5-min Rain = 0
KSE2 122224Z 10011KT 38/15 A2992 RMK A01 T03760147  RH  026%=      5-min Rain = 0
KSE2 122225Z 11009KT 37/15 A2992 RMK A01 T03730146  RH  026%=      5-min Rain = 0
KSE2 122226Z 10010KT 37/15 A2992 RMK A01 T03730147  RH  026%=      5-min Rain = 0
KSE2 122227Z 08009KT 37/15 A2992 RMK A01 T03730145  RH  026%=      5-min Rain = 0
KSE2 122228Z 11008KT 37/15 A2992 RMK A01 T03710146  RH  026%=      5-min Rain = 0
KSE2 122229Z 11010KT 37/15 A2992 RMK A01 T03740145  RH  026%=      5-min Rain = 0
KSE2 122230Z 14011KT 38/15 A2992 RMK A01 T03750145  RH  026%=      5-min Rain = 0
KSE2 122231Z 13010G15KT 37/15 A2992 RMK A01 T03740146  RH  026%=      5-min Rain = 0
KSE2 122232Z 14011G17KT 37/15 A2992 RMK A01 T03740147  RH  026%=      5-min Rain = 0
KSE2 122233Z 13010KT 37/15 A2992 RMK A01 T03730146  RH  026%=      5-min Rain = 0
KSE2 122234Z 12009KT 37/15 A2992 RMK A01 T03730148  RH  026%=      5-min Rain = 0
KSE2 122235Z 13007KT 38/15 A2992 RMK A01 T03750148  RH  026%=      5-min Rain = 0
KSE2 122236Z 12012KT 38/15 A2992 RMK A01 T03760149  RH  026%=      5-min Rain = 0
KSE2 122237Z 12012KT 38/15 A2992 RMK A01 T03760148  RH  026%=      5-min Rain = 0
KSE2 122238Z 12008KT 38/15 A2992 RMK A01 T03750145  RH  026%=      5-min Rain = 0
KSE2 122239Z 12009KT 37/15 A2992 RMK A01 T03730145  RH  026%=      5-min Rain = 0
KSE2 122240Z 11008KT 37/15 A2992 RMK A01 T03740146  RH  026%=      5-min Rain = 0
KSE2 122241Z 11008KT 38/15 A2992 RMK A01 T03760145  RH  025%=      5-min Rain = 0
KSE2 122242Z 14011KT 38/14 A2992 RMK A01 T03770144  RH  025%=      5-min Rain = 0
KSE2 122243Z 14012KT 38/14 A2992 RMK A01 T03760143  RH  025%=      5-min Rain = 0
KSE2 122244Z 13011KT 37/14 A2992 RMK A01 T03740142  RH  025%=      5-min Rain = 0
KSE2 122245Z 13010KT 37/14 A2992 RMK A01 T03730142  RH  025%=      5-min Rain = 0
KSE2 122246Z 12011KT 37/14 A2992 RMK A01 T03730144  RH  026%=      5-min Rain = 0
KSE2 122247Z 12010KT 37/15 A2992 RMK A01 T03730145  RH  026%=      5-min Rain = 0
KSE2 122248Z 11011KT 37/15 A2992 RMK A01 T03720146  RH  026%=      5-min Rain = 0
KSE2 122249Z 12010KT 37/15 A2992 RMK A01 T03710145  RH  026%=      5-min Rain = 0
KSE2 122250Z 12010KT 37/15 A2992 RMK A01 T03710146  RH  026%=      5-min Rain = 0
KSE2 122251Z 12010KT 37/15 A2992 RMK A01 T03710145  RH  026%=      5-min Rain = 0
KSE2 122252Z 13010G16KT 37/15 A2992 RMK A01 T03730145  RH  026%=      5-min Rain = 0
KSE2 122253Z 12013KT 37/14 A2992 RMK A01 T03730141  RH  025%=      5-min Rain = 0
KSE2 122254Z 13011KT 37/14 A2992 RMK A01 T03720142  RH  026%=      5-min Rain = 0
KSE2 122255Z 14010KT 37/14 A2992 RMK A01 T03720140  RH  025%=      5-min Rain = 0
KSE2 122256Z 13010KT 37/14 A2992 RMK A01 T03720141  RH  025%=      5-min Rain = 0
KSE2 122257Z 13012KT 37/14 A2992 RMK A01 T03740144  RH  026%=      5-min Rain = 0
KSE2 122258Z 17009KT 37/15 A2992 RMK A01 T03730147  RH  026%=      5-min Rain = 0
KSE2 122259Z 14005KT 37/15 A2992 RMK A01 T03730148  RH  026%=      5-min Rain = 0
KSE2 122300Z 13008KT 38/15 A2992 RMK A01 T03760149  RH  026%=      5-min Rain = 0
KSE2 122301Z 13007KT 38/15 A2992 RMK A01 T03760146  RH  026%=      5-min Rain = 0
KSE2 122302Z 11008KT 38/15 A2992 RMK A01 T03750147  RH  026%=      5-min Rain = 0
KSE2 122303Z 11009KT 37/15 A2992 RMK A01 T03740147  RH  026%=      5-min Rain = 0
KSE2 122304Z 13008KT 37/15 A2992 RMK A01 T03740148  RH  026%=      5-min Rain = 0
KSE2 122305Z 11010KT 37/15 A2992 RMK A01 T03740148  RH  026%=      5-min Rain = 0
KSE2 122306Z 11011KT 37/15 A2992 RMK A01 T03730146  RH  026%=      5-min Rain = 0
KSE2 122307Z 11008KT 37/15 A2992 RMK A01 T03700145  RH  026%=      5-min Rain = 0
KSE2 122308Z 12007KT 37/15 A2992 RMK A01 T03700145  RH  026%=      5-min Rain = 0
KSE2 122309Z 12006KT 37/15 A2992 RMK A01 T03730147  RH  026%=      5-min Rain = 0
KSE2 122310Z 13007KT 37/15 A2992 RMK A01 T03740147  RH  026%=      5-min Rain = 0
KSE2 122311Z 14008KT 37/15 A2992 RMK A01 T03720145  RH  026%=      5-min Rain = 0
KSE2 122312Z 15010KT 37/14 A2992 RMK A01 T03700144  RH  026%=      5-min Rain = 0
KSE2 122313Z 14010KT 37/14 A2992 RMK A01 T03700140  RH  026%=      5-min Rain = 0
KSE2 122314Z 14011KT 37/14 A2992 RMK A01 T03700140  RH  025%=      5-min Rain = 0
KSE2 122315Z 14010KT 37/14 A2992 RMK A01 T03690139  RH  025%=      5-min Rain = 0
KSE2 122316Z 12009KT 37/14 A2992 RMK A01 T03690141  RH  026%=      5-min Rain = 0
KSE2 122317Z 12007KT 37/14 A2992 RMK A01 T03690141  RH  026%=      5-min Rain = 0
KSE2 122318Z 10005KT 37/14 A2992 RMK A01 T03690140  RH  026%=      5-min Rain = 0
KSE2 122319Z 10005KT 37/14 A2992 RMK A01 T03680140  RH  026%=      5-min Rain = 0
KSE2 122320Z 12006G12KT 37/14 A2992 RMK A01 T03690141  RH  026%=      5-min Rain = 0
KSE2 122321Z 13010KT 37/14 A2992 RMK A01 T03710141  RH  025%=      5-min Rain = 0
KSE2 122322Z 14009KT 37/14 A2992 RMK A01 T03710139  RH  025%=      5-min Rain = 0
KSE2 122323Z 13010KT 37/14 A2992 RMK A01 T03700139  RH  025%=      5-min Rain = 0
KSE2 122324Z 13010KT 37/14 A2992 RMK A01 T03700138  RH  025%=      5-min Rain = 0
KSE2 122325Z 14011KT 37/14 A2992 RMK A01 T03690138  RH  025%=      5-min Rain = 0
KSE2 122326Z 15011KT 37/14 A2992 RMK A01 T03690138  RH  025%=      5-min Rain = 0
KSE2 122327Z 16008KT 37/14 A2992 RMK A01 T03680137  RH  025%=      5-min Rain = 0
KSE2 122328Z 15007KT 37/14 A2992 RMK A01 T03690136  RH  025%=      5-min Rain = 0
KSE2 122329Z 14005KT 37/14 A2992 RMK A01 T03680138  RH  025%=      5-min Rain = 0
KSE2 122330Z 17008G13KT 37/14 A2992 RMK A01 T03670138  RH  026%=      5-min Rain = 0
KSE2 122331Z 17008KT 37/14 A2992 RMK A01 T03670142  RH  026%=      5-min Rain = 0
KSE2 122332Z 16006KT 37/14 A2992 RMK A01 T03680143  RH  026%=      5-min Rain = 0
KSE2 122333Z 16008KT 37/14 A2991 RMK A01 T03690143  RH  026%=      5-min Rain = 0
KSE2 122334Z 16008KT 37/14 A2991 RMK A01 T03690142  RH  026%=      5-min Rain = 0
KSE2 122335Z 14007KT 37/14 A2991 RMK A01 T03680139  RH  025%=      5-min Rain = 0
KSE2 122336Z 15009KT 37/14 A2991 RMK A01 T03670137  RH  025%=      5-min Rain = 0
KSE2 122337Z 15008KT 37/14 A2991 RMK A01 T03670137  RH  025%=      5-min Rain = 0
KSE2 122338Z 14008KT 37/14 A2991 RMK A01 T03680138  RH  025%=      5-min Rain = 0
KSE2 122339Z 15006KT 37/14 A2991 RMK A01 T03690137  RH  025%=      5-min Rain = 0
KSE2 122340Z 16005KT 37/14 A2991 RMK A01 T03700140  RH  025%=      5-min Rain = 0
KSE2 122341Z 14006KT 37/14 A2991 RMK A01 T03710141  RH  025%=      5-min Rain = 0
KSE2 122342Z 12006KT 37/14 A2991 RMK A01 T03710137  RH  025%=      5-min Rain = 0
KSE2 122343Z 11006KT 37/14 A2991 RMK A01 T03700136  RH  025%=      5-min Rain = 0
KSE2 122344Z 12008KT 37/14 A2991 RMK A01 T03700135  RH  025%=      5-min Rain = 0
KSE2 122345Z 12006KT 37/14 A2991 RMK A01 T03690135  RH  025%=      5-min Rain = 0
KSE2 122346Z 14008KT 37/14 A2991 RMK A01 T03690135  RH  025%=      5-min Rain = 0
KSE2 122347Z 14006KT 37/14 A2991 RMK A01 T03690135  RH  025%=      5-min Rain = 0
KSE2 122348Z 13008KT 37/14 A2991 RMK A01 T03690135  RH  025%=      5-min Rain = 0
KSE2 122349Z 12006KT 37/13 A2991 RMK A01 T03680134  RH  025%=      5-min Rain = 0
KSE2 122350Z 12007KT 37/14 A2991 RMK A01 T03670135  RH  025%=      5-min Rain = 0
KSE2 122351Z 13008KT 37/14 A2991 RMK A01 T03670135  RH  025%=      5-min Rain = 0
KSE2 122352Z 13006KT 37/14 A2991 RMK A01 T03670135  RH  025%=      5-min Rain = 0
KSE2 122353Z 15008KT 37/14 A2991 RMK A01 T03670137  RH  025%=      5-min Rain = 0
KSE2 122354Z 14007G12KT 37/14 A2991 RMK A01 T03680139  RH  026%=      5-min Rain = 0
KSE2 122355Z 14006KT 37/14 A2991 RMK A01 T03670141  RH  026%=      5-min Rain = 0
KSE2 122356Z 15008KT 37/14 A2991 RMK A01 T03680140  RH  026%=      5-min Rain = 0
KSE2 122357Z 15006KT 37/14 A2991 RMK A01 T03660138  RH  026%=      5-min Rain = 0
KSE2 122358Z 16005KT 37/14 A2991 RMK A01 T03650138  RH  026%=      5-min Rain = 0
KSE2 122359Z 15005KT 37/14 A2991 RMK A01 T03650138  RH  026%=      5-min Rain = 0
KSE2 130000Z 15005KT 37/14 A2991 RMK A01 T03650138  RH  026%=      5-min Rain = 0
KSE2 130001Z 15009KT 37/14 A2991 RMK A01 T03650141  RH  026%=      5-min Rain = 0
KSE2 130002Z 15009KT 37/14 A2991 RMK A01 T03660144  RH  027%=      5-min Rain = 0
KSE2 130003Z 14008KT 37/15 A2991 RMK A01 T03650146  RH  027%=      5-min Rain = 0
KSE2 130004Z 15010KT 37/15 A2991 RMK A01 T03650149  RH  028%=      5-min Rain = 0
KSE2 130005Z 14011KT 36/15 A2991 RMK A01 T03640148  RH  028%=      5-min Rain = 0
KSE2 130006Z 14008KT 36/15 A2991 RMK A01 T03620148  RH  028%=      5-min Rain = 0
KSE2 130007Z 15008KT 36/15 A2991 RMK A01 T03620148  RH  028%=      5-min Rain = 0
KSE2 130008Z 15007KT 36/15 A2991 RMK A01 T03620148  RH  028%=      5-min Rain = 0
KSE2 130009Z 14008KT 36/15 A2991 RMK A01 T03630148  RH  028%=      5-min Rain = 0
KSE2 130010Z 14011KT 36/15 A2991 RMK A01 T03630154  RH  029%=      5-min Rain = 0
KSE2 130011Z 14010KT 36/16 A2991 RMK A01 T03620158  RH  030%=      5-min Rain = 0
KSE2 130012Z 14006KT 36/16 A2991 RMK A01 T03600160  RH  030%=      5-min Rain = 0
KSE2 130013Z 12008KT 36/16 A2991 RMK A01 T03610161  RH  031%=      5-min Rain = 0
KSE2 130014Z 13010KT 36/16 A2991 RMK A01 T03610163  RH  031%=      5-min Rain = 0
KSE2 130015Z 13010KT 36/16 A2991 RMK A01 T03600164  RH  031%=      5-min Rain = 0
KSE2 130016Z 14010KT 36/16 A2991 RMK A01 T03580164  RH  032%=      5-min Rain = 0
KSE2 130017Z 14010KT 36/16 A2991 RMK A01 T03580164  RH  032%=      5-min Rain = 0
KSE2 130018Z 15010KT 36/16 A2991 RMK A01 T03580164  RH  032%=      5-min Rain = 0
KSE2 130019Z 15010KT 36/16 A2991 RMK A01 T03570163  RH  032%=      5-min Rain = 0
KSE2 130020Z 16011KT 36/16 A2991 RMK A01 T03570163  RH  032%=      5-min Rain = 0
KSE2 130021Z 16008KT 36/16 A2991 RMK A01 T03570163  RH  032%=      5-min Rain = 0
KSE2 130022Z 15007KT 36/16 A2991 RMK A01 T03570163  RH  032%=      5-min Rain = 0
KSE2 130023Z 14010KT 36/16 A2991 RMK A01 T03570163  RH  032%=      5-min Rain = 0
KSE2 130024Z 16011KT 36/16 A2991 RMK A01 T03570163  RH  032%=      5-min Rain = 0
KSE2 130025Z 16008KT 36/16 A2991 RMK A01 T03560162  RH  032%=      5-min Rain = 0
KSE2 130026Z 17009KT 36/16 A2991 RMK A01 T03560163  RH  032%=      5-min Rain = 0
KSE2 130027Z 15007KT 36/16 A2991 RMK A01 T03560164  RH  032%=      5-min Rain = 0
KSE2 130028Z 13008KT 36/17 A2991 RMK A01 T03550165  RH  032%=      5-min Rain = 0
KSE2 130029Z 16006KT 36/17 A2991 RMK A01 T03550166  RH  033%=      5-min Rain = 0
KSE2 130030Z 16007KT 35/17 A2992 RMK A01 T03540167  RH  033%=      5-min Rain = 0
KSE2 130031Z 14011KT 36/17 A2992 RMK A01 T03550168  RH  033%=      5-min Rain = 0
KSE2 130032Z 15011KT 35/17 A2992 RMK A01 T03540168  RH  033%=      5-min Rain = 0
KSE2 130033Z 14013KT 35/17 A2991 RMK A01 T03530167  RH  033%=      5-min Rain = 0
KSE2 130034Z 17009KT 35/17 A2992 RMK A01 T03530167  RH  033%=      5-min Rain = 0
KSE2 130035Z 16009KT 35/17 A2992 RMK A01 T03520167  RH  033%=      5-min Rain = 0
KSE2 130036Z 16012KT 35/17 A2991 RMK A01 T03520167  RH  033%=      5-min Rain = 0
KSE2 130037Z 16010KT 35/17 A2991 RMK A01 T03520168  RH  034%=      5-min Rain = 0
KSE2 130038Z 17008G13KT 35/17 A2991 RMK A01 T03510168  RH  034%=      5-min Rain = 0
KSE2 130039Z 18010KT 35/17 A2991 RMK A01 T03510168  RH  034%=      5-min Rain = 0
KSE2 130040Z 18013KT 35/17 A2991 RMK A01 T03510169  RH  034%=      5-min Rain = 0
KSE2 130041Z 17010KT 35/17 A2991 RMK A01 T03500169  RH  034%=      5-min Rain = 0
KSE2 130042Z 17011KT 35/17 A2991 RMK A01 T03500169  RH  034%=      5-min Rain = 0
KSE2 130043Z 16009G14KT 35/17 A2992 RMK A01 T03500169  RH  034%=      5-min Rain = 0
KSE2 130044Z 16010KT 35/17 A2991 RMK A01 T03490169  RH  034%=      5-min Rain = 0
KSE2 130045Z 17009KT 35/17 A2992 RMK A01 T03490169  RH  034%=      5-min Rain = 0
KSE2 130046Z 17010KT 35/17 A2992 RMK A01 T03490169  RH  034%=      5-min Rain = 0
KSE2 130047Z 16009KT 35/17 A2992 RMK A01 T03480169  RH  035%=      5-min Rain = 0
KSE2 130048Z 16010KT 35/17 A2992 RMK A01 T03480169  RH  035%=      5-min Rain = 0
KSE2 130049Z 16010KT 35/17 A2992 RMK A01 T03480169  RH  035%=      5-min Rain = 0
KSE2 130050Z 16007KT 35/17 A2992 RMK A01 T03470169  RH  035%=      5-min Rain = 0
KSE2 130051Z 16010KT 35/17 A2992 RMK A01 T03470169  RH  035%=      5-min Rain = 0
KSE2 130052Z 17008KT 35/17 A2992 RMK A01 T03470169  RH  035%=      5-min Rain = 0
KSE2 130053Z 16006KT 35/17 A2992 RMK A01 T03460169  RH  035%=      5-min Rain = 0
KSE2 130054Z 16008KT 35/17 A2991 RMK A01 T03460169  RH  035%=      5-min Rain = 0
KSE2 130055Z 16008KT 35/17 A2991 RMK A01 T03450169  RH  035%=      5-min Rain = 0
KSE2 130056Z 16009KT 35/17 A2991 RMK A01 T03450168  RH  035%=      5-min Rain = 0
KSE2 130057Z 16008KT 34/17 A2991 RMK A01 T03440168  RH  035%=      5-min Rain = 0
KSE2 130058Z 16008KT 34/17 A2991 RMK A01 T03440168  RH  035%=      5-min Rain = 0
KSE2 130059Z 16007KT 34/17 A2991 RMK A01 T03440167  RH  035%=      5-min Rain = 0
KSE2 130100Z 15007KT 34/17 A2991 RMK A01 T03440167  RH  035%=      5-min Rain = 0
KSE2 130101Z 16009KT 34/17 A2991 RMK A01 T03430167  RH  035%=      5-min Rain = 0
KSE2 130102Z 16010KT 34/17 A2992 RMK A01 T03430166  RH  035%=      5-min Rain = 0
KSE2 130103Z 16009KT 34/17 A2992 RMK A01 T03430166  RH  035%=      5-min Rain = 0
KSE2 130104Z 15009KT 34/17 A2992 RMK A01 T03420167  RH  035%=      5-min Rain = 0
KSE2 130105Z 16009KT 34/17 A2992 RMK A01 T03420167  RH  035%=      5-min Rain = 0
KSE2 130106Z 15008KT 34/17 A2992 RMK A01 T03420168  RH  036%=      5-min Rain = 0
KSE2 130107Z 14011KT 34/17 A2991 RMK A01 T03410170  RH  036%=      5-min Rain = 0
KSE2 130108Z 15010KT 34/17 A2992 RMK A01 T03400170  RH  036%=      5-min Rain = 0
KSE2 130109Z 15010KT 34/17 A2992 RMK A01 T03400171  RH  037%=      5-min Rain = 0
KSE2 130110Z 15009KT 34/17 A2992 RMK A01 T03400171  RH  037%=      5-min Rain = 0
KSE2 130111Z 15008KT 34/17 A2992 RMK A01 T03390171  RH  037%=      5-min Rain = 0
KSE2 130112Z 15008G13KT 34/17 A2992 RMK A01 T03390171  RH  037%=      5-min Rain = 0
KSE2 130113Z 15011KT 34/17 A2992 RMK A01 T03380171  RH  037%=      5-min Rain = 0
KSE2 130114Z 15010KT 34/17 A2992 RMK A01 T03380171  RH  037%=      5-min Rain = 0
KSE2 130115Z 14010KT 34/17 A2992 RMK A01 T03380171  RH  037%=      5-min Rain = 0
KSE2 130116Z 14013KT 34/17 A2992 RMK A01 T03380172  RH  037%=      5-min Rain = 0
KSE2 130117Z 14010KT 34/17 A2992 RMK A01 T03380171  RH  037%=      5-min Rain = 0
KSE2 130118Z 14009KT 34/17 A2992 RMK A01 T03370171  RH  037%=      5-min Rain = 0
KSE2 130119Z 14010KT 34/17 A2992 RMK A01 T03370171  RH  037%=      5-min Rain = 0
KSE2 130120Z 15007KT 34/17 A2992 RMK A01 T03370171  RH  037%=      5-min Rain = 0
KSE2 130121Z 15008KT 34/17 A2992 RMK A01 T03360171  RH  037%=      5-min Rain = 0
KSE2 130122Z 16008KT 34/17 A2992 RMK A01 T03350171  RH  038%=      5-min Rain = 0
KSE2 130123Z 16009KT 34/17 A2992 RMK A01 T03350171  RH  038%=      5-min Rain = 0
KSE2 130124Z 14008KT 34/17 A2992 RMK A01 T03350171  RH  038%=      5-min Rain = 0
KSE2 130125Z 15008KT 33/17 A2992 RMK A01 T03340171  RH  038%=      5-min Rain = 0
KSE2 130126Z 15011KT 33/17 A2992 RMK A01 T03340171  RH  038%=      5-min Rain = 0
KSE2 130127Z 15011KT 33/17 A2992 RMK A01 T03340171  RH  038%=      5-min Rain = 0
KSE2 130128Z 14008KT 33/17 A2992 RMK A01 T03340171  RH  038%=      5-min Rain = 0
KSE2 130129Z 15007KT 33/17 A2992 RMK A01 T03340171  RH  038%=      5-min Rain = 0
KSE2 130130Z 14008KT 33/17 A2992 RMK A01 T03330171  RH  038%=      5-min Rain = 0
KSE2 130131Z 15010KT 33/17 A2992 RMK A01 T03320171  RH  038%=      5-min Rain = 0
KSE2 130132Z 14010KT 33/17 A2992 RMK A01 T03320171  RH  038%=      5-min Rain = 0
KSE2 130133Z 14011KT 33/17 A2992 RMK A01 T03320171  RH  038%=      5-min Rain = 0
KSE2 130134Z 14008KT 33/17 A2992 RMK A01 T03330171  RH  038%=      5-min Rain = 0
KSE2 130135Z 14009KT 33/17 A2992 RMK A01 T03320171  RH  038%=      5-min Rain = 0
KSE2 130136Z 14007KT 33/17 A2992 RMK A01 T03320170  RH  038%=      5-min Rain = 0
KSE2 130137Z 14008KT 33/17 A2992 RMK A01 T03310171  RH  038%=      5-min Rain = 0
KSE2 130138Z 15007KT 33/17 A2992 RMK A01 T03310170  RH  038%=      5-min Rain = 0
KSE2 130139Z 15008KT 33/17 A2992 RMK A01 T03310170  RH  038%=      5-min Rain = 0
KSE2 130140Z 14008KT 33/17 A2992 RMK A01 T03310171  RH  038%=      5-min Rain = 0
KSE2 130141Z 14008KT 33/17 A2992 RMK A01 T03300170  RH  039%=      5-min Rain = 0
KSE2 130142Z 14009KT 33/17 A2992 RMK A01 T03300170  RH  039%=      5-min Rain = 0
KSE2 130143Z 14007KT 33/17 A2992 RMK A01 T03300170  RH  039%=      5-min Rain = 0
KSE2 130144Z 14009KT 33/17 A2992 RMK A01 T03290170  RH  039%=      5-min Rain = 0
KSE2 130145Z 14006KT 33/17 A2992 RMK A01 T03290170  RH  039%=      5-min Rain = 0
KSE2 130146Z 15008KT 33/17 A2993 RMK A01 T03290170  RH  039%=      5-min Rain = 0
KSE2 130147Z 15008KT 33/17 A2993 RMK A01 T03280170  RH  039%=      5-min Rain = 0
KSE2 130148Z 15009KT 33/17 A2993 RMK A01 T03280170  RH  039%=      5-min Rain = 0
KSE2 130149Z 15009KT 33/17 A2993 RMK A01 T03280170  RH  039%=      5-min Rain = 0
KSE2 130150Z 15007KT 33/17 A2993 RMK A01 T03280170  RH  039%=      5-min Rain = 0
KSE2 130151Z 15008KT 33/17 A2993 RMK A01 T03280170  RH  039%=      5-min Rain = 0
KSE2 130152Z 15006KT 33/17 A2993 RMK A01 T03270170  RH  039%=      5-min Rain = 0
KSE2 130153Z 15006KT 33/17 A2993 RMK A01 T03270170  RH  039%=      5-min Rain = 0
KSE2 130154Z 15008KT 33/17 A2993 RMK A01 T03260170  RH  039%=      5-min Rain = 0
KSE2 130155Z 15007KT 33/17 A2993 RMK A01 T03250170  RH  039%=      5-min Rain = 0
KSE2 130156Z 15006KT 33/17 A2993 RMK A01 T03250170  RH  040%=      5-min Rain = 0
KSE2 130157Z 15007KT 32/17 A2993 RMK A01 T03240170  RH  040%=      5-min Rain = 0
KSE2 130158Z 15007KT 32/17 A2993 RMK A01 T03240170  RH  040%=      5-min Rain = 0
KSE2 130159Z 15007KT 32/17 A2993 RMK A01 T03240170  RH  040%=      5-min Rain = 0
KSE2 130200Z 14006KT 32/17 A2993 RMK A01 T03230170  RH  040%=      5-min Rain = 0
KSE2 130201Z 15008KT 32/17 A2993 RMK A01 T03230170  RH  040%=      5-min Rain = 0
KSE2 130202Z 15006KT 32/17 A2993 RMK A01 T03220170  RH  040%=      5-min Rain = 0
KSE2 130203Z 15007KT 32/17 A2993 RMK A01 T03220170  RH  040%=      5-min Rain = 0
KSE2 130204Z 15007KT 32/17 A2993 RMK A01 T03220171  RH  040%=      5-min Rain = 0
KSE2 130205Z 15008KT 32/17 A2993 RMK A01 T03220171  RH  041%=      5-min Rain = 0
KSE2 130206Z 15007KT 32/17 A2993 RMK A01 T03220171  RH  041%=      5-min Rain = 0
KSE2 130207Z 15006KT 32/17 A2993 RMK A01 T03220171  RH  041%=      5-min Rain = 0
KSE2 130208Z 15008KT 32/17 A2993 RMK A01 T03210171  RH  041%=      5-min Rain = 0
KSE2 130209Z 15007KT 32/17 A2993 RMK A01 T03210171  RH  041%=      5-min Rain = 0
KSE2 130210Z 15007KT 32/17 A2993 RMK A01 T03210171  RH  041%=      5-min Rain = 0
KSE2 130211Z 15007KT 32/17 A2993 RMK A01 T03200171  RH  041%=      5-min Rain = 0
KSE2 130212Z 15007KT 32/17 A2993 RMK A01 T03200171  RH  041%=      5-min Rain = 0
KSE2 130213Z 14006KT 32/17 A2993 RMK A01 T03200171  RH  041%=      5-min Rain = 0
KSE2 130214Z 15006KT 32/17 A2993 RMK A01 T03200172  RH  041%=      5-min Rain = 0
KSE2 130215Z 15006KT 32/17 A2993 RMK A01 T03190172  RH  041%=      5-min Rain = 0
KSE2 130216Z 16007KT 32/17 A2993 RMK A01 T03190172  RH  041%=      5-min Rain = 0
KSE2 130217Z 15007KT 32/17 A2993 RMK A01 T03190171  RH  041%=      5-min Rain = 0
KSE2 130218Z 15007KT 32/17 A2993 RMK A01 T03190172  RH  042%=      5-min Rain = 0
KSE2 130219Z 15007KT 32/17 A2993 RMK A01 T03180172  RH  042%=      5-min Rain = 0
KSE2 130220Z 14006KT 32/17 A2993 RMK A01 T03180172  RH  042%=      5-min Rain = 0
KSE2 130221Z 15007KT 32/17 A2993 RMK A01 T03180172  RH  042%=      5-min Rain = 0
KSE2 130222Z 15006KT 32/17 A2993 RMK A01 T03180172  RH  042%=      5-min Rain = 0
KSE2 130223Z 15007KT 32/17 A2994 RMK A01 T03170172  RH  042%=      5-min Rain = 0
KSE2 130224Z 15007KT 32/17 A2994 RMK A01 T03170172  RH  042%=      5-min Rain = 0
KSE2 130225Z 15008KT 32/17 A2994 RMK A01 T03170172  RH  042%=      5-min Rain = 0
KSE2 130226Z 15006KT 32/17 A2994 RMK A01 T03170172  RH  042%=      5-min Rain = 0
KSE2 130227Z 16007KT 32/17 A2994 RMK A01 T03160172  RH  042%=      5-min Rain = 0
KSE2 130228Z 15008KT 32/17 A2994 RMK A01 T03160173  RH  042%=      5-min Rain = 0
KSE2 130229Z 15007KT 32/17 A2994 RMK A01 T03160172  RH  042%=      5-min Rain = 0
KSE2 130230Z 15006KT 32/17 A2994 RMK A01 T03160173  RH  042%=      5-min Rain = 0
KSE2 130231Z 15007KT 32/17 A2994 RMK A01 T03150172  RH  042%=      5-min Rain = 0
KSE2 130232Z 15007KT 32/17 A2994 RMK A01 T03150172  RH  043%=      5-min Rain = 0
KSE2 130233Z 15007KT 32/17 A2994 RMK A01 T03150173  RH  043%=      5-min Rain = 0
KSE2 130234Z 15006KT 31/17 A2994 RMK A01 T03140172  RH  043%=      5-min Rain = 0
KSE2 130235Z 15006KT 31/17 A2994 RMK A01 T03140173  RH  043%=      5-min Rain = 0
KSE2 130236Z 15007KT 31/17 A2994 RMK A01 T03140173  RH  043%=      5-min Rain = 0
KSE2 130237Z 15006KT 31/17 A2994 RMK A01 T03130172  RH  043%=      5-min Rain = 0
KSE2 130238Z 15006KT 31/17 A2994 RMK A01 T03130173  RH  043%=      5-min Rain = 0
KSE2 130239Z 15006KT 31/17 A2994 RMK A01 T03130173  RH  043%=      5-min Rain = 0
KSE2 130240Z 15006KT 31/17 A2994 RMK A01 T03120172  RH  043%=      5-min Rain = 0
KSE2 130241Z 15006KT 31/17 A2994 RMK A01 T03120173  RH  043%=      5-min Rain = 0
KSE2 130242Z 15005KT 31/17 A2994 RMK A01 T03120172  RH  043%=      5-min Rain = 0
KSE2 130243Z 15005KT 31/17 A2994 RMK A01 T03120172  RH  043%=      5-min Rain = 0
KSE2 130244Z 15006KT 31/17 A2994 RMK A01 T03120173  RH  043%=      5-min Rain = 0
KSE2 130245Z 15006KT 31/17 A2994 RMK A01 T03110172  RH  043%=      5-min Rain = 0
KSE2 130246Z 15007KT 31/17 A2994 RMK A01 T03110172  RH  044%=      5-min Rain = 0
KSE2 130247Z 14006KT 31/17 A2994 RMK A01 T03110172  RH  044%=      5-min Rain = 0
KSE2 130248Z 14006KT 31/17 A2994 RMK A01 T03100172  RH  044%=      5-min Rain = 0
KSE2 130249Z 15006KT 31/17 A2994 RMK A01 T03090172  RH  044%=      5-min Rain = 0
KSE2 130250Z 14007KT 31/17 A2994 RMK A01 T03090172  RH  044%=      5-min Rain = 0
KSE2 130251Z 15008KT 31/17 A2994 RMK A01 T03090172  RH  044%=      5-min Rain = 0
KSE2 130252Z 15007KT 31/17 A2994 RMK A01 T03090172  RH  044%=      5-min Rain = 0
KSE2 130253Z 14007KT 31/17 A2994 RMK A01 T03090173  RH  044%=      5-min Rain = 0
KSE2 130254Z 15006KT 31/17 A2995 RMK A01 T03090172  RH  044%=      5-min Rain = 0
KSE2 130255Z 14006KT 31/17 A2995 RMK A01 T03090173  RH  044%=      5-min Rain = 0
KSE2 130256Z 15006KT 31/17 A2994 RMK A01 T03080172  RH  044%=      5-min Rain = 0
KSE2 130257Z 14007KT 31/17 A2994 RMK A01 T03080173  RH  044%=      5-min Rain = 0
KSE2 130258Z 15006KT 31/17 A2994 RMK A01 T03080172  RH  044%=      5-min Rain = 0
KSE2 130259Z 14007KT 31/17 A2995 RMK A01 T03080172  RH  044%=      5-min Rain = 0
KSE2 130300Z 15006KT 31/17 A2995 RMK A01 T03080173  RH  044%=      5-min Rain = 0
KSE2 130301Z 15006KT 31/17 A2995 RMK A01 T03080173  RH  044%=      5-min Rain = 0
KSE2 130302Z 15006KT 31/17 A2995 RMK A01 T03070173  RH  044%=      5-min Rain = 0
KSE2 130303Z 15006KT 31/17 A2995 RMK A01 T03070173  RH  045%=      5-min Rain = 0
KSE2 130304Z 15006KT 31/17 A2995 RMK A01 T03070173  RH  045%=      5-min Rain = 0
KSE2 130305Z 15007KT 31/17 A2995 RMK A01 T03070173  RH  045%=      5-min Rain = 0
KSE2 130306Z 15006KT 31/17 A2995 RMK A01 T03060173  RH  045%=      5-min Rain = 0
KSE2 130307Z 15006KT 31/17 A2995 RMK A01 T03060173  RH  045%=      5-min Rain = 0
KSE2 130308Z 15006KT 31/17 A2995 RMK A01 T03060173  RH  045%=      5-min Rain = 0
KSE2 130309Z 15007KT 31/17 A2995 RMK A01 T03050173  RH  045%=      5-min Rain = 0
KSE2 130310Z 15007KT 31/17 A2995 RMK A01 T03050173  RH  045%=      5-min Rain = 0
KSE2 130311Z 15006KT 31/17 A2995 RMK A01 T03050173  RH  045%=      5-min Rain = 0
KSE2 130312Z 15006KT 30/17 A2995 RMK A01 T03040172  RH  045%=      5-min Rain = 0
KSE2 130313Z 14006KT 30/17 A2995 RMK A01 T03040173  RH  045%=      5-min Rain = 0
KSE2 130314Z 14007KT 30/17 A2995 RMK A01 T03040173  RH  045%=      5-min Rain = 0
KSE2 130315Z 14007KT 30/17 A2995 RMK A01 T03030173  RH  046%=      5-min Rain = 0
KSE2 130316Z 15007KT 30/17 A2995 RMK A01 T03030173  RH  046%=      5-min Rain = 0
KSE2 130317Z 14006KT 30/17 A2995 RMK A01 T03020173  RH  046%=      5-min Rain = 0
KSE2 130318Z 15007KT 30/17 A2995 RMK A01 T03020173  RH  046%=      5-min Rain = 0
KSE2 130319Z 15006KT 30/17 A2995 RMK A01 T03010173  RH  046%=      5-min Rain = 0
KSE2 130320Z 15006KT 30/17 A2995 RMK A01 T03010173  RH  046%=      5-min Rain = 0
KSE2 130321Z 14006KT 30/17 A2995 RMK A01 T03010173  RH  046%=      5-min Rain = 0
KSE2 130322Z 14006KT 30/17 A2995 RMK A01 T03000173  RH  046%=      5-min Rain = 0
KSE2 130323Z 14006KT 30/17 A2995 RMK A01 T03000173  RH  047%=      5-min Rain = 0
KSE2 130324Z 13005KT 30/17 A2995 RMK A01 T02990173  RH  047%=      5-min Rain = 0
KSE2 130325Z 13006KT 30/17 A2995 RMK A01 T02990173  RH  047%=      5-min Rain = 0
KSE2 130326Z 13006KT 30/17 A2995 RMK A01 T02980173  RH  047%=      5-min Rain = 0
KSE2 130327Z 14005KT 30/17 A2995 RMK A01 T02980173  RH  047%=      5-min Rain = 0
KSE2 130328Z 14005KT 30/17 A2995 RMK A01 T02970173  RH  047%=      5-min Rain = 0
KSE2 130329Z 14005KT 30/17 A2995 RMK A01 T02970173  RH  047%=      5-min Rain = 0
KSE2 130330Z 14005KT 30/17 A2995 RMK A01 T02960173  RH  047%=      5-min Rain = 0
KSE2 130331Z 14005KT 30/17 A2995 RMK A01 T02960173  RH  048%=      5-min Rain = 0
KSE2 130332Z 14005KT 30/17 A2995 RMK A01 T02960173  RH  048%=      5-min Rain = 0
KSE2 130333Z 14005KT 30/17 A2995 RMK A01 T02950173  RH  048%=      5-min Rain = 0
KSE2 130334Z 13004KT 30/17 A2995 RMK A01 T02950173  RH  048%=      5-min Rain = 0
KSE2 130335Z 14005KT 29/17 A2995 RMK A01 T02940173  RH  048%=      5-min Rain = 0
KSE2 130336Z 14005KT 29/17 A2995 RMK A01 T02940173  RH  048%=      5-min Rain = 0
KSE2 130337Z 14005KT 29/17 A2995 RMK A01 T02930172  RH  048%=      5-min Rain = 0
KSE2 130338Z 13005KT 29/17 A2995 RMK A01 T02920173  RH  048%=      5-min Rain = 0
KSE2 130339Z 13005KT 29/17 A2995 RMK A01 T02920173  RH  048%=      5-min Rain = 0
KSE2 130340Z 12005KT 29/17 A2995 RMK A01 T02920173  RH  049%=      5-min Rain = 0
KSE2 130341Z 13005KT 29/17 A2995 RMK A01 T02910172  RH  049%=      5-min Rain = 0
KSE2 130342Z 13005KT 29/17 A2995 RMK A01 T02900173  RH  049%=      5-min Rain = 0
KSE2 130343Z 13005KT 29/17 A2995 RMK A01 T02890173  RH  049%=      5-min Rain = 0
KSE2 130344Z 13004KT 29/17 A2995 RMK A01 T02890173  RH  049%=      5-min Rain = 0
KSE2 130345Z 13004KT 29/17 A2995 RMK A01 T02890173  RH  049%=      5-min Rain = 0
KSE2 130346Z 14005KT 29/17 A2995 RMK A01 T02880173  RH  050%=      5-min Rain = 0
KSE2 130347Z 14004KT 29/17 A2995 RMK A01 T02880173  RH  050%=      5-min Rain = 0
KSE2 130348Z 14004KT 29/17 A2995 RMK A01 T02880173  RH  050%=      5-min Rain = 0
KSE2 130349Z 14004KT 29/17 A2996 RMK A01 T02870172  RH  050%=      5-min Rain = 0
KSE2 130350Z 14004KT 29/17 A2996 RMK A01 T02870172  RH  050%=      5-min Rain = 0
KSE2 130351Z 14004KT 29/17 A2996 RMK A01 T02870173  RH  050%=      5-min Rain = 0
KSE2 130352Z 14004KT 29/17 A2996 RMK A01 T02870172  RH  050%=      5-min Rain = 0
KSE2 130353Z 14004KT 29/17 A2996 RMK A01 T02860172  RH  050%=      5-min Rain = 0
KSE2 130354Z 14004KT 29/17 A2996 RMK A01 T02860172  RH  050%=      5-min Rain = 0
KSE2 130355Z 14004KT 29/17 A2996 RMK A01 T02860172  RH  050%=      5-min Rain = 0
KSE2 130356Z 14004KT 29/17 A2996 RMK A01 T02850172  RH  050%=      5-min Rain = 0
KSE2 130357Z 14004KT 29/17 A2996 RMK A01 T02850172  RH  050%=      5-min Rain = 0
KSE2 130358Z 14004KT 29/17 A2996 RMK A01 T02850172  RH  051%=      5-min Rain = 0
KSE2 130359Z 13004KT 28/17 A2996 RMK A01 T02840172  RH  051%=      5-min Rain = 0
KSE2 130400Z 14004KT 28/17 A2996 RMK A01 T02840173  RH  051%=      5-min Rain = 0
KSE2 130401Z 14004KT 28/17 A2996 RMK A01 T02840172  RH  051%=      5-min Rain = 0
KSE2 130402Z 14004KT 28/17 A2996 RMK A01 T02840172  RH  051%=      5-min Rain = 0
KSE2 130403Z 14004KT 28/17 A2996 RMK A01 T02830172  RH  051%=      5-min Rain = 0
KSE2 130404Z 14004KT 28/17 A2996 RMK A01 T02830172  RH  051%=      5-min Rain = 0
KSE2 130405Z 13005KT 28/17 A2996 RMK A01 T02820172  RH  051%=      5-min Rain = 0
KSE2 130406Z 14004KT 28/17 A2996 RMK A01 T02820172  RH  051%=      5-min Rain = 0
KSE2 130407Z 14004KT 28/17 A2996 RMK A01 T02810172  RH  051%=      5-min Rain = 0
KSE2 130408Z 14004KT 28/17 A2996 RMK A01 T02810172  RH  052%=      5-min Rain = 0
KSE2 130409Z 13004KT 28/17 A2996 RMK A01 T02800172  RH  052%=      5-min Rain = 0
KSE2 130410Z 14004KT 28/17 A2996 RMK A01 T02800173  RH  052%=      5-min Rain = 0
KSE2 130411Z 13004KT 28/17 A2996 RMK A01 T02800172  RH  052%=      5-min Rain = 0
KSE2 130412Z 12005KT 28/17 A2996 RMK A01 T02790172  RH  052%=      5-min Rain = 0
KSE2 130413Z 12004KT 28/17 A2996 RMK A01 T02790172  RH  052%=      5-min Rain = 0
KSE2 130414Z 13004KT 28/17 A2996 RMK A01 T02790173  RH  053%=      5-min Rain = 0
KSE2 130415Z 14004KT 28/17 A2996 RMK A01 T02780173  RH  053%=      5-min Rain = 0
KSE2 130416Z 14004KT 28/17 A2996 RMK A01 T02780173  RH  053%=      5-min Rain = 0
KSE2 130417Z 13004KT 28/17 A2996 RMK A01 T02780173  RH  053%=      5-min Rain = 0
KSE2 130418Z 13005KT 28/17 A2996 RMK A01 T02780173  RH  053%=      5-min Rain = 0
KSE2 130419Z 13004KT 28/17 A2996 RMK A01 T02780173  RH  053%=      5-min Rain = 0
KSE2 130420Z 13004KT 28/17 A2996 RMK A01 T02780173  RH  053%=      5-min Rain = 0
KSE2 130421Z 14004KT 28/17 A2996 RMK A01 T02780173  RH  053%=      5-min Rain = 0
KSE2 130422Z 14004KT 28/17 A2996 RMK A01 T02770173  RH  053%=      5-min Rain = 0
KSE2 130423Z 15004KT 28/17 A2996 RMK A01 T02770173  RH  053%=      5-min Rain = 0
KSE2 130424Z 15004KT 28/17 A2996 RMK A01 T02770173  RH  053%=      5-min Rain = 0
KSE2 130425Z 15005KT 28/17 A2996 RMK A01 T02760173  RH  053%=      5-min Rain = 0
KSE2 130426Z 15005KT 28/17 A2996 RMK A01 T02770173  RH  053%=      5-min Rain = 0
KSE2 130427Z 15004KT 28/17 A2996 RMK A01 T02770173  RH  053%=      5-min Rain = 0
KSE2 130428Z 15004KT 28/17 A2996 RMK A01 T02770173  RH  053%=      5-min Rain = 0
KSE2 130429Z 15004KT 28/17 A2996 RMK A01 T02770173  RH  053%=      5-min Rain = 0
KSE2 130430Z 15004KT 28/17 A2996 RMK A01 T02760173  RH  053%=      5-min Rain = 0
KSE2 130431Z 15004KT 28/17 A2996 RMK A01 T02770173  RH  053%=      5-min Rain = 0
KSE2 130432Z 14004KT 28/17 A2996 RMK A01 T02760173  RH  053%=      5-min Rain = 0
KSE2 130433Z 14005KT 28/17 A2996 RMK A01 T02760173  RH  053%=      5-min Rain = 0
KSE2 130434Z 14005KT 28/17 A2996 RMK A01 T02760173  RH  054%=      5-min Rain = 0
KSE2 130435Z 15005KT 28/17 A2996 RMK A01 T02760173  RH  053%=      5-min Rain = 0
KSE2 130436Z 15004KT 28/17 A2996 RMK A01 T02760173  RH  053%=      5-min Rain = 0
KSE2 130437Z 15005KT 28/17 A2996 RMK A01 T02760173  RH  054%=      5-min Rain = 0
KSE2 130438Z 15005KT 28/17 A2996 RMK A01 T02760173  RH  054%=      5-min Rain = 0
KSE2 130439Z 15005KT 28/17 A2996 RMK A01 T02760173  RH  054%=      5-min Rain = 0
KSE2 130440Z 16005KT 28/17 A2996 RMK A01 T02760174  RH  054%=      5-min Rain = 0
KSE2 130441Z 16005KT 28/17 A2996 RMK A01 T02760174  RH  054%=      5-min Rain = 0
KSE2 130442Z 16005KT 28/17 A2996 RMK A01 T02760174  RH  054%=      5-min Rain = 0
KSE2 130443Z 16005KT 28/17 A2996 RMK A01 T02760173  RH  054%=      5-min Rain = 0
KSE2 130444Z 15005KT 28/17 A2996 RMK A01 T02760173  RH  054%=      5-min Rain = 0
KSE2 130445Z 16006KT 28/17 A2996 RMK A01 T02750173  RH  054%=      5-min Rain = 0
KSE2 130446Z 16005KT 28/17 A2996 RMK A01 T02750174  RH  054%=      5-min Rain = 0
KSE2 130447Z 16005KT 28/17 A2996 RMK A01 T02750174  RH  054%=      5-min Rain = 0
KSE2 130448Z 16005KT 28/17 A2996 RMK A01 T02750174  RH  054%=      5-min Rain = 0
KSE2 130449Z 15005KT 28/17 A2996 RMK A01 T02750174  RH  054%=      5-min Rain = 0
KSE2 130450Z 15006KT 28/17 A2996 RMK A01 T02750174  RH  054%=      5-min Rain = 0
KSE2 130451Z 15005KT 28/17 A2996 RMK A01 T02750173  RH  054%=      5-min Rain = 0
KSE2 130452Z 15005KT 27/17 A2996 RMK A01 T02730173  RH  054%=      5-min Rain = 0
KSE2 130453Z 15005KT 27/17 A2996 RMK A01 T02720173  RH  054%=      5-min Rain = 0
KSE2 130454Z 15006KT 27/17 A2996 RMK A01 T02720173  RH  055%=      5-min Rain = 0
KSE2 130455Z 15005KT 27/17 A2996 RMK A01 T02710173  RH  055%=      5-min Rain = 0
KSE2 130456Z 15005KT 27/17 A2996 RMK A01 T02710173  RH  055%=      5-min Rain = 0
KSE2 130457Z 15005KT 27/17 A2996 RMK A01 T02700172  RH  055%=      5-min Rain = 0
KSE2 130458Z 15005KT 27/17 A2996 RMK A01 T02690173  RH  055%=      5-min Rain = 0
KSE2 130459Z 16005KT 27/17 A2996 RMK A01 T02680172  RH  056%=      5-min Rain = 0

Page generated in 0.0735 seconds.